<?xml version="1.0" encoding="UTF-8" standalone="no" ?>
<gpx xmlns="http://www.topografix.com/GPX/1/1" xmlns:xsi="http://www.w3.org/2001/XMLSchema-instance" xsi:schemaLocation="http://www.topografix.com/GPX/1/1 http://www.topografix.com/GPX/1/1/gpx.xsd" version="1.1" creator="VisuGPX - https://www.visugpx.com">
  <metadata>
    <name>Crête de la Pègue depuis Super-Barèges</name>
    <desc><![CDATA[18 février 2012

Superbe journée et neige de rêve à la descente (.... et un ski tout neuf redescendu tout seul du sommet et finalement retrouvé, Merci F.). ]]></desc>
  </metadata>
  <trk>
    <name><![CDATA[Crête de la Pègue depuis Super-Barèges_1]]></name>
    <trkseg>
      <trkpt lat="42.9037" lon="0.13182">
        <ele>1778</ele>
        <time>2012-02-18T09:33:51Z</time>
      </trkpt>
      <trkpt lat="42.90345" lon="0.13195">
        <ele>1788</ele>
        <time>2012-02-18T09:34:55Z</time>
      </trkpt>
      <trkpt lat="42.90343" lon="0.13196">
        <ele>1788</ele>
        <time>2012-02-18T09:35:01Z</time>
      </trkpt>
      <trkpt lat="42.90341" lon="0.13198">
        <ele>1788</ele>
        <time>2012-02-18T09:35:08Z</time>
      </trkpt>
      <trkpt lat="42.9034" lon="0.13198">
        <ele>1788</ele>
        <time>2012-02-18T09:35:11Z</time>
      </trkpt>
      <trkpt lat="42.90338" lon="0.132">
        <ele>1788</ele>
        <time>2012-02-18T09:35:15Z</time>
      </trkpt>
      <trkpt lat="42.90337" lon="0.13201">
        <ele>1788</ele>
        <time>2012-02-18T09:35:19Z</time>
      </trkpt>
      <trkpt lat="42.90336" lon="0.13201">
        <ele>1788</ele>
        <time>2012-02-18T09:35:22Z</time>
      </trkpt>
      <trkpt lat="42.90334" lon="0.13203">
        <ele>1788</ele>
        <time>2012-02-18T09:35:28Z</time>
      </trkpt>
      <trkpt lat="42.90332" lon="0.13204">
        <ele>1788</ele>
        <time>2012-02-18T09:35:32Z</time>
      </trkpt>
      <trkpt lat="42.90331" lon="0.13204">
        <ele>1788</ele>
        <time>2012-02-18T09:35:35Z</time>
      </trkpt>
      <trkpt lat="42.90329" lon="0.13205">
        <ele>1788</ele>
        <time>2012-02-18T09:35:38Z</time>
      </trkpt>
      <trkpt lat="42.90328" lon="0.13206">
        <ele>1788</ele>
        <time>2012-02-18T09:35:42Z</time>
      </trkpt>
      <trkpt lat="42.90326" lon="0.13207">
        <ele>1789</ele>
        <time>2012-02-18T09:35:48Z</time>
      </trkpt>
      <trkpt lat="42.90324" lon="0.13208">
        <ele>1789</ele>
        <time>2012-02-18T09:35:51Z</time>
      </trkpt>
      <trkpt lat="42.90323" lon="0.13209">
        <ele>1790</ele>
        <time>2012-02-18T09:35:55Z</time>
      </trkpt>
      <trkpt lat="42.90322" lon="0.13211">
        <ele>1790</ele>
        <time>2012-02-18T09:35:58Z</time>
      </trkpt>
      <trkpt lat="42.9032" lon="0.13212">
        <ele>1791</ele>
        <time>2012-02-18T09:36:03Z</time>
      </trkpt>
      <trkpt lat="42.90319" lon="0.13214">
        <ele>1792</ele>
        <time>2012-02-18T09:36:06Z</time>
      </trkpt>
      <trkpt lat="42.90317" lon="0.13215">
        <ele>1792</ele>
        <time>2012-02-18T09:36:11Z</time>
      </trkpt>
      <trkpt lat="42.90315" lon="0.13216">
        <ele>1793</ele>
        <time>2012-02-18T09:36:17Z</time>
      </trkpt>
      <trkpt lat="42.90313" lon="0.13218">
        <ele>1793</ele>
        <time>2012-02-18T09:36:21Z</time>
      </trkpt>
      <trkpt lat="42.90312" lon="0.13219">
        <ele>1793</ele>
        <time>2012-02-18T09:36:24Z</time>
      </trkpt>
      <trkpt lat="42.90311" lon="0.1322">
        <ele>1794</ele>
        <time>2012-02-18T09:36:27Z</time>
      </trkpt>
      <trkpt lat="42.9031" lon="0.13221">
        <ele>1794</ele>
        <time>2012-02-18T09:36:30Z</time>
      </trkpt>
      <trkpt lat="42.90308" lon="0.13223">
        <ele>1795</ele>
        <time>2012-02-18T09:36:36Z</time>
      </trkpt>
      <trkpt lat="42.90306" lon="0.13224">
        <ele>1796</ele>
        <time>2012-02-18T09:36:41Z</time>
      </trkpt>
      <trkpt lat="42.90305" lon="0.13228">
        <ele>1798</ele>
        <time>2012-02-18T09:36:47Z</time>
      </trkpt>
      <trkpt lat="42.90305" lon="0.13229">
        <ele>1799</ele>
        <time>2012-02-18T09:36:50Z</time>
      </trkpt>
      <trkpt lat="42.90304" lon="0.13231">
        <ele>1799</ele>
        <time>2012-02-18T09:36:53Z</time>
      </trkpt>
      <trkpt lat="42.90303" lon="0.13234">
        <ele>1800</ele>
        <time>2012-02-18T09:36:59Z</time>
      </trkpt>
      <trkpt lat="42.90302" lon="0.13236">
        <ele>1801</ele>
        <time>2012-02-18T09:37:02Z</time>
      </trkpt>
      <trkpt lat="42.90301" lon="0.13237">
        <ele>1801</ele>
        <time>2012-02-18T09:37:05Z</time>
      </trkpt>
      <trkpt lat="42.90299" lon="0.13238">
        <ele>1802</ele>
        <time>2012-02-18T09:37:08Z</time>
      </trkpt>
      <trkpt lat="42.90298" lon="0.13239">
        <ele>1802</ele>
        <time>2012-02-18T09:37:11Z</time>
      </trkpt>
      <trkpt lat="42.90297" lon="0.13241">
        <ele>1803</ele>
        <time>2012-02-18T09:37:14Z</time>
      </trkpt>
      <trkpt lat="42.90296" lon="0.13242">
        <ele>1803</ele>
        <time>2012-02-18T09:37:18Z</time>
      </trkpt>
      <trkpt lat="42.90294" lon="0.13244">
        <ele>1803</ele>
        <time>2012-02-18T09:37:22Z</time>
      </trkpt>
      <trkpt lat="42.90293" lon="0.13244">
        <ele>1803</ele>
        <time>2012-02-18T09:37:25Z</time>
      </trkpt>
      <trkpt lat="42.9029" lon="0.13246">
        <ele>1803</ele>
        <time>2012-02-18T09:37:31Z</time>
      </trkpt>
      <trkpt lat="42.90289" lon="0.13246">
        <ele>1804</ele>
        <time>2012-02-18T09:37:34Z</time>
      </trkpt>
      <trkpt lat="42.90287" lon="0.13246">
        <ele>1804</ele>
        <time>2012-02-18T09:37:37Z</time>
      </trkpt>
      <trkpt lat="42.90286" lon="0.13247">
        <ele>1804</ele>
        <time>2012-02-18T09:37:40Z</time>
      </trkpt>
      <trkpt lat="42.90285" lon="0.13247">
        <ele>1804</ele>
        <time>2012-02-18T09:37:44Z</time>
      </trkpt>
      <trkpt lat="42.90282" lon="0.13247">
        <ele>1805</ele>
        <time>2012-02-18T09:37:49Z</time>
      </trkpt>
      <trkpt lat="42.90279" lon="0.13248">
        <ele>1806</ele>
        <time>2012-02-18T09:37:55Z</time>
      </trkpt>
      <trkpt lat="42.90278" lon="0.13248">
        <ele>1806</ele>
        <time>2012-02-18T09:38:08Z</time>
      </trkpt>
      <trkpt lat="42.90276" lon="0.13248">
        <ele>1806</ele>
        <time>2012-02-18T09:38:11Z</time>
      </trkpt>
      <trkpt lat="42.90275" lon="0.13247">
        <ele>1806</ele>
        <time>2012-02-18T09:38:15Z</time>
      </trkpt>
      <trkpt lat="42.90272" lon="0.13247">
        <ele>1806</ele>
        <time>2012-02-18T09:38:19Z</time>
      </trkpt>
      <trkpt lat="42.90271" lon="0.13246">
        <ele>1806</ele>
        <time>2012-02-18T09:38:23Z</time>
      </trkpt>
      <trkpt lat="42.90268" lon="0.13243">
        <ele>1807</ele>
        <time>2012-02-18T09:38:27Z</time>
      </trkpt>
      <trkpt lat="42.90267" lon="0.13242">
        <ele>1808</ele>
        <time>2012-02-18T09:38:30Z</time>
      </trkpt>
      <trkpt lat="42.90266" lon="0.13242">
        <ele>1808</ele>
        <time>2012-02-18T09:38:34Z</time>
      </trkpt>
      <trkpt lat="42.90264" lon="0.13241">
        <ele>1809</ele>
        <time>2012-02-18T09:38:38Z</time>
      </trkpt>
      <trkpt lat="42.90263" lon="0.13241">
        <ele>1809</ele>
        <time>2012-02-18T09:38:41Z</time>
      </trkpt>
      <trkpt lat="42.90262" lon="0.13241">
        <ele>1809</ele>
        <time>2012-02-18T09:38:45Z</time>
      </trkpt>
      <trkpt lat="42.90261" lon="0.13241">
        <ele>1809</ele>
        <time>2012-02-18T09:38:48Z</time>
      </trkpt>
      <trkpt lat="42.90259" lon="0.1324">
        <ele>1809</ele>
        <time>2012-02-18T09:38:51Z</time>
      </trkpt>
      <trkpt lat="42.90258" lon="0.1324">
        <ele>1810</ele>
        <time>2012-02-18T09:38:54Z</time>
      </trkpt>
      <trkpt lat="42.90257" lon="0.1324">
        <ele>1810</ele>
        <time>2012-02-18T09:38:57Z</time>
      </trkpt>
      <trkpt lat="42.90253" lon="0.13239">
        <ele>1811</ele>
        <time>2012-02-18T09:39:03Z</time>
      </trkpt>
      <trkpt lat="42.90252" lon="0.13238">
        <ele>1811</ele>
        <time>2012-02-18T09:39:06Z</time>
      </trkpt>
      <trkpt lat="42.90251" lon="0.13238">
        <ele>1812</ele>
        <time>2012-02-18T09:39:10Z</time>
      </trkpt>
      <trkpt lat="42.90248" lon="0.13239">
        <ele>1813</ele>
        <time>2012-02-18T09:39:15Z</time>
      </trkpt>
      <trkpt lat="42.90245" lon="0.1324">
        <ele>1814</ele>
        <time>2012-02-18T09:39:19Z</time>
      </trkpt>
      <trkpt lat="42.90244" lon="0.1324">
        <ele>1814</ele>
        <time>2012-02-18T09:39:22Z</time>
      </trkpt>
      <trkpt lat="42.90242" lon="0.13241">
        <ele>1815</ele>
        <time>2012-02-18T09:39:25Z</time>
      </trkpt>
      <trkpt lat="42.9024" lon="0.13243">
        <ele>1817</ele>
        <time>2012-02-18T09:39:30Z</time>
      </trkpt>
      <trkpt lat="42.90239" lon="0.13243">
        <ele>1817</ele>
        <time>2012-02-18T09:39:34Z</time>
      </trkpt>
      <trkpt lat="42.90237" lon="0.13244">
        <ele>1817</ele>
        <time>2012-02-18T09:39:37Z</time>
      </trkpt>
      <trkpt lat="42.90236" lon="0.13244">
        <ele>1817</ele>
        <time>2012-02-18T09:39:40Z</time>
      </trkpt>
      <trkpt lat="42.90233" lon="0.13243">
        <ele>1818</ele>
        <time>2012-02-18T09:39:45Z</time>
      </trkpt>
      <trkpt lat="42.9023" lon="0.13242">
        <ele>1818</ele>
        <time>2012-02-18T09:39:49Z</time>
      </trkpt>
      <trkpt lat="42.90228" lon="0.13241">
        <ele>1819</ele>
        <time>2012-02-18T09:39:52Z</time>
      </trkpt>
      <trkpt lat="42.90226" lon="0.13241">
        <ele>1819</ele>
        <time>2012-02-18T09:40:01Z</time>
      </trkpt>
      <trkpt lat="42.90223" lon="0.13242">
        <ele>1819</ele>
        <time>2012-02-18T09:40:05Z</time>
      </trkpt>
      <trkpt lat="42.9022" lon="0.13244">
        <ele>1819</ele>
        <time>2012-02-18T09:40:09Z</time>
      </trkpt>
      <trkpt lat="42.90217" lon="0.13245">
        <ele>1820</ele>
        <time>2012-02-18T09:40:13Z</time>
      </trkpt>
      <trkpt lat="42.90214" lon="0.13247">
        <ele>1820</ele>
        <time>2012-02-18T09:40:17Z</time>
      </trkpt>
      <trkpt lat="42.90211" lon="0.13249">
        <ele>1820</ele>
        <time>2012-02-18T09:40:21Z</time>
      </trkpt>
      <trkpt lat="42.90208" lon="0.1325">
        <ele>1820</ele>
        <time>2012-02-18T09:40:25Z</time>
      </trkpt>
      <trkpt lat="42.90205" lon="0.13251">
        <ele>1821</ele>
        <time>2012-02-18T09:40:28Z</time>
      </trkpt>
      <trkpt lat="42.90203" lon="0.13252">
        <ele>1821</ele>
        <time>2012-02-18T09:40:33Z</time>
      </trkpt>
      <trkpt lat="42.902" lon="0.13253">
        <ele>1823</ele>
        <time>2012-02-18T09:40:37Z</time>
      </trkpt>
      <trkpt lat="42.90197" lon="0.13255">
        <ele>1825</ele>
        <time>2012-02-18T09:40:42Z</time>
      </trkpt>
      <trkpt lat="42.90194" lon="0.13257">
        <ele>1825</ele>
        <time>2012-02-18T09:40:46Z</time>
      </trkpt>
      <trkpt lat="42.90192" lon="0.1326">
        <ele>1825</ele>
        <time>2012-02-18T09:40:51Z</time>
      </trkpt>
      <trkpt lat="42.90191" lon="0.13261">
        <ele>1826</ele>
        <time>2012-02-18T09:40:55Z</time>
      </trkpt>
      <trkpt lat="42.9019" lon="0.13263">
        <ele>1826</ele>
        <time>2012-02-18T09:40:58Z</time>
      </trkpt>
      <trkpt lat="42.9019" lon="0.13265">
        <ele>1826</ele>
        <time>2012-02-18T09:41:01Z</time>
      </trkpt>
      <trkpt lat="42.90189" lon="0.13269">
        <ele>1827</ele>
        <time>2012-02-18T09:41:07Z</time>
      </trkpt>
      <trkpt lat="42.90189" lon="0.13271">
        <ele>1828</ele>
        <time>2012-02-18T09:41:10Z</time>
      </trkpt>
      <trkpt lat="42.90189" lon="0.13274">
        <ele>1828</ele>
        <time>2012-02-18T09:41:16Z</time>
      </trkpt>
      <trkpt lat="42.90189" lon="0.13276">
        <ele>1829</ele>
        <time>2012-02-18T09:41:19Z</time>
      </trkpt>
      <trkpt lat="42.90189" lon="0.13277">
        <ele>1829</ele>
        <time>2012-02-18T09:41:22Z</time>
      </trkpt>
      <trkpt lat="42.90189" lon="0.13279">
        <ele>1829</ele>
        <time>2012-02-18T09:41:25Z</time>
      </trkpt>
      <trkpt lat="42.90189" lon="0.13281">
        <ele>1829</ele>
        <time>2012-02-18T09:41:28Z</time>
      </trkpt>
      <trkpt lat="42.90189" lon="0.13285">
        <ele>1830</ele>
        <time>2012-02-18T09:41:33Z</time>
      </trkpt>
      <trkpt lat="42.90189" lon="0.13286">
        <ele>1831</ele>
        <time>2012-02-18T09:41:36Z</time>
      </trkpt>
      <trkpt lat="42.90189" lon="0.1329">
        <ele>1831</ele>
        <time>2012-02-18T09:41:41Z</time>
      </trkpt>
      <trkpt lat="42.9019" lon="0.13291">
        <ele>1832</ele>
        <time>2012-02-18T09:41:44Z</time>
      </trkpt>
      <trkpt lat="42.9019" lon="0.13294">
        <ele>1832</ele>
        <time>2012-02-18T09:41:48Z</time>
      </trkpt>
      <trkpt lat="42.90191" lon="0.13296">
        <ele>1833</ele>
        <time>2012-02-18T09:41:51Z</time>
      </trkpt>
      <trkpt lat="42.90191" lon="0.13299">
        <ele>1834</ele>
        <time>2012-02-18T09:41:55Z</time>
      </trkpt>
      <trkpt lat="42.90191" lon="0.13301">
        <ele>1834</ele>
        <time>2012-02-18T09:41:58Z</time>
      </trkpt>
      <trkpt lat="42.9019" lon="0.13305">
        <ele>1835</ele>
        <time>2012-02-18T09:42:02Z</time>
      </trkpt>
      <trkpt lat="42.9019" lon="0.13307">
        <ele>1836</ele>
        <time>2012-02-18T09:42:05Z</time>
      </trkpt>
      <trkpt lat="42.9019" lon="0.13309">
        <ele>1836</ele>
        <time>2012-02-18T09:42:08Z</time>
      </trkpt>
      <trkpt lat="42.9019" lon="0.13311">
        <ele>1836</ele>
        <time>2012-02-18T09:42:11Z</time>
      </trkpt>
      <trkpt lat="42.90189" lon="0.13314">
        <ele>1837</ele>
        <time>2012-02-18T09:42:16Z</time>
      </trkpt>
      <trkpt lat="42.90189" lon="0.13318">
        <ele>1837</ele>
        <time>2012-02-18T09:42:20Z</time>
      </trkpt>
      <trkpt lat="42.90189" lon="0.13321">
        <ele>1837</ele>
        <time>2012-02-18T09:42:23Z</time>
      </trkpt>
      <trkpt lat="42.90189" lon="0.13324">
        <ele>1838</ele>
        <time>2012-02-18T09:42:28Z</time>
      </trkpt>
      <trkpt lat="42.90189" lon="0.13326">
        <ele>1839</ele>
        <time>2012-02-18T09:42:31Z</time>
      </trkpt>
      <trkpt lat="42.90189" lon="0.13328">
        <ele>1839</ele>
        <time>2012-02-18T09:42:34Z</time>
      </trkpt>
      <trkpt lat="42.90189" lon="0.1333">
        <ele>1839</ele>
        <time>2012-02-18T09:42:37Z</time>
      </trkpt>
      <trkpt lat="42.90188" lon="0.13332">
        <ele>1840</ele>
        <time>2012-02-18T09:42:40Z</time>
      </trkpt>
      <trkpt lat="42.90188" lon="0.13333">
        <ele>1840</ele>
        <time>2012-02-18T09:42:43Z</time>
      </trkpt>
      <trkpt lat="42.90188" lon="0.13335">
        <ele>1841</ele>
        <time>2012-02-18T09:42:46Z</time>
      </trkpt>
      <trkpt lat="42.90188" lon="0.13337">
        <ele>1841</ele>
        <time>2012-02-18T09:42:49Z</time>
      </trkpt>
      <trkpt lat="42.90188" lon="0.1334">
        <ele>1842</ele>
        <time>2012-02-18T09:42:55Z</time>
      </trkpt>
      <trkpt lat="42.90188" lon="0.13342">
        <ele>1842</ele>
        <time>2012-02-18T09:42:58Z</time>
      </trkpt>
      <trkpt lat="42.90188" lon="0.13344">
        <ele>1842</ele>
        <time>2012-02-18T09:43:01Z</time>
      </trkpt>
      <trkpt lat="42.90187" lon="0.13345">
        <ele>1843</ele>
        <time>2012-02-18T09:43:05Z</time>
      </trkpt>
      <trkpt lat="42.90186" lon="0.13345">
        <ele>1844</ele>
        <time>2012-02-18T09:43:10Z</time>
      </trkpt>
      <trkpt lat="42.90184" lon="0.13344">
        <ele>1845</ele>
        <time>2012-02-18T09:43:13Z</time>
      </trkpt>
      <trkpt lat="42.90182" lon="0.13343">
        <ele>1845</ele>
        <time>2012-02-18T09:43:18Z</time>
      </trkpt>
      <trkpt lat="42.9018" lon="0.1334">
        <ele>1846</ele>
        <time>2012-02-18T09:43:23Z</time>
      </trkpt>
      <trkpt lat="42.90179" lon="0.13338">
        <ele>1846</ele>
        <time>2012-02-18T09:43:26Z</time>
      </trkpt>
      <trkpt lat="42.90176" lon="0.13336">
        <ele>1846</ele>
        <time>2012-02-18T09:43:31Z</time>
      </trkpt>
      <trkpt lat="42.90175" lon="0.13334">
        <ele>1847</ele>
        <time>2012-02-18T09:43:34Z</time>
      </trkpt>
      <trkpt lat="42.90174" lon="0.13333">
        <ele>1847</ele>
        <time>2012-02-18T09:43:37Z</time>
      </trkpt>
      <trkpt lat="42.90173" lon="0.13331">
        <ele>1847</ele>
        <time>2012-02-18T09:43:40Z</time>
      </trkpt>
      <trkpt lat="42.90171" lon="0.1333">
        <ele>1847</ele>
        <time>2012-02-18T09:43:43Z</time>
      </trkpt>
      <trkpt lat="42.9017" lon="0.13329">
        <ele>1848</ele>
        <time>2012-02-18T09:43:46Z</time>
      </trkpt>
      <trkpt lat="42.90167" lon="0.13328">
        <ele>1848</ele>
        <time>2012-02-18T09:43:52Z</time>
      </trkpt>
      <trkpt lat="42.90165" lon="0.13327">
        <ele>1849</ele>
        <time>2012-02-18T09:43:57Z</time>
      </trkpt>
      <trkpt lat="42.90163" lon="0.13327">
        <ele>1849</ele>
        <time>2012-02-18T09:44:00Z</time>
      </trkpt>
      <trkpt lat="42.90162" lon="0.13327">
        <ele>1850</ele>
        <time>2012-02-18T09:44:03Z</time>
      </trkpt>
      <trkpt lat="42.9016" lon="0.13327">
        <ele>1850</ele>
        <time>2012-02-18T09:44:06Z</time>
      </trkpt>
      <trkpt lat="42.90157" lon="0.13326">
        <ele>1851</ele>
        <time>2012-02-18T09:44:12Z</time>
      </trkpt>
      <trkpt lat="42.90156" lon="0.13326">
        <ele>1851</ele>
        <time>2012-02-18T09:44:15Z</time>
      </trkpt>
      <trkpt lat="42.90154" lon="0.13325">
        <ele>1852</ele>
        <time>2012-02-18T09:44:18Z</time>
      </trkpt>
      <trkpt lat="42.90151" lon="0.13324">
        <ele>1852</ele>
        <time>2012-02-18T09:44:24Z</time>
      </trkpt>
      <trkpt lat="42.9015" lon="0.13323">
        <ele>1852</ele>
        <time>2012-02-18T09:44:27Z</time>
      </trkpt>
      <trkpt lat="42.90148" lon="0.13323">
        <ele>1853</ele>
        <time>2012-02-18T09:44:30Z</time>
      </trkpt>
      <trkpt lat="42.90147" lon="0.13323">
        <ele>1853</ele>
        <time>2012-02-18T09:44:33Z</time>
      </trkpt>
      <trkpt lat="42.90145" lon="0.13322">
        <ele>1854</ele>
        <time>2012-02-18T09:44:36Z</time>
      </trkpt>
      <trkpt lat="42.90144" lon="0.13322">
        <ele>1854</ele>
        <time>2012-02-18T09:44:39Z</time>
      </trkpt>
      <trkpt lat="42.90143" lon="0.13322">
        <ele>1855</ele>
        <time>2012-02-18T09:44:42Z</time>
      </trkpt>
      <trkpt lat="42.9014" lon="0.13321">
        <ele>1855</ele>
        <time>2012-02-18T09:44:48Z</time>
      </trkpt>
      <trkpt lat="42.90139" lon="0.13321">
        <ele>1856</ele>
        <time>2012-02-18T09:44:51Z</time>
      </trkpt>
      <trkpt lat="42.90138" lon="0.1332">
        <ele>1856</ele>
        <time>2012-02-18T09:44:54Z</time>
      </trkpt>
      <trkpt lat="42.90136" lon="0.1332">
        <ele>1857</ele>
        <time>2012-02-18T09:44:58Z</time>
      </trkpt>
      <trkpt lat="42.90135" lon="0.1332">
        <ele>1858</ele>
        <time>2012-02-18T09:45:01Z</time>
      </trkpt>
      <trkpt lat="42.90134" lon="0.13319">
        <ele>1858</ele>
        <time>2012-02-18T09:45:04Z</time>
      </trkpt>
      <trkpt lat="42.90131" lon="0.13319">
        <ele>1859</ele>
        <time>2012-02-18T09:45:10Z</time>
      </trkpt>
      <trkpt lat="42.90128" lon="0.13319">
        <ele>1860</ele>
        <time>2012-02-18T09:45:16Z</time>
      </trkpt>
      <trkpt lat="42.90126" lon="0.13318">
        <ele>1860</ele>
        <time>2012-02-18T09:45:22Z</time>
      </trkpt>
      <trkpt lat="42.90124" lon="0.13318">
        <ele>1860</ele>
        <time>2012-02-18T09:45:25Z</time>
      </trkpt>
      <trkpt lat="42.90123" lon="0.13317">
        <ele>1861</ele>
        <time>2012-02-18T09:45:28Z</time>
      </trkpt>
      <trkpt lat="42.90122" lon="0.13317">
        <ele>1861</ele>
        <time>2012-02-18T09:45:31Z</time>
      </trkpt>
      <trkpt lat="42.9012" lon="0.13316">
        <ele>1862</ele>
        <time>2012-02-18T09:45:34Z</time>
      </trkpt>
      <trkpt lat="42.90119" lon="0.13316">
        <ele>1862</ele>
        <time>2012-02-18T09:45:37Z</time>
      </trkpt>
      <trkpt lat="42.90118" lon="0.13316">
        <ele>1863</ele>
        <time>2012-02-18T09:45:40Z</time>
      </trkpt>
      <trkpt lat="42.90116" lon="0.13315">
        <ele>1864</ele>
        <time>2012-02-18T09:45:53Z</time>
      </trkpt>
      <trkpt lat="42.90115" lon="0.13315">
        <ele>1864</ele>
        <time>2012-02-18T09:45:59Z</time>
      </trkpt>
      <trkpt lat="42.90114" lon="0.13316">
        <ele>1865</ele>
        <time>2012-02-18T09:46:11Z</time>
      </trkpt>
      <trkpt lat="42.90115" lon="0.13319">
        <ele>1865</ele>
        <time>2012-02-18T09:46:14Z</time>
      </trkpt>
      <trkpt lat="42.90115" lon="0.13321">
        <ele>1865</ele>
        <time>2012-02-18T09:46:18Z</time>
      </trkpt>
      <trkpt lat="42.90114" lon="0.13325">
        <ele>1866</ele>
        <time>2012-02-18T09:46:22Z</time>
      </trkpt>
      <trkpt lat="42.90115" lon="0.13326">
        <ele>1867</ele>
        <time>2012-02-18T09:46:26Z</time>
      </trkpt>
      <trkpt lat="42.90114" lon="0.13328">
        <ele>1867</ele>
        <time>2012-02-18T09:46:29Z</time>
      </trkpt>
      <trkpt lat="42.90114" lon="0.1333">
        <ele>1868</ele>
        <time>2012-02-18T09:46:32Z</time>
      </trkpt>
      <trkpt lat="42.90114" lon="0.13333">
        <ele>1869</ele>
        <time>2012-02-18T09:46:37Z</time>
      </trkpt>
      <trkpt lat="42.90114" lon="0.13335">
        <ele>1869</ele>
        <time>2012-02-18T09:46:40Z</time>
      </trkpt>
      <trkpt lat="42.90114" lon="0.13339">
        <ele>1870</ele>
        <time>2012-02-18T09:46:44Z</time>
      </trkpt>
      <trkpt lat="42.90114" lon="0.13342">
        <ele>1872</ele>
        <time>2012-02-18T09:46:49Z</time>
      </trkpt>
      <trkpt lat="42.90114" lon="0.13344">
        <ele>1873</ele>
        <time>2012-02-18T09:46:53Z</time>
      </trkpt>
      <trkpt lat="42.90114" lon="0.13345">
        <ele>1873</ele>
        <time>2012-02-18T09:46:56Z</time>
      </trkpt>
      <trkpt lat="42.90115" lon="0.13347">
        <ele>1873</ele>
        <time>2012-02-18T09:46:59Z</time>
      </trkpt>
      <trkpt lat="42.90115" lon="0.13349">
        <ele>1874</ele>
        <time>2012-02-18T09:47:02Z</time>
      </trkpt>
      <trkpt lat="42.90115" lon="0.13352">
        <ele>1875</ele>
        <time>2012-02-18T09:47:06Z</time>
      </trkpt>
      <trkpt lat="42.90115" lon="0.13354">
        <ele>1876</ele>
        <time>2012-02-18T09:47:10Z</time>
      </trkpt>
      <trkpt lat="42.90115" lon="0.13356">
        <ele>1877</ele>
        <time>2012-02-18T09:47:17Z</time>
      </trkpt>
      <trkpt lat="42.90115" lon="0.13359">
        <ele>1877</ele>
        <time>2012-02-18T09:47:20Z</time>
      </trkpt>
      <trkpt lat="42.90115" lon="0.13361">
        <ele>1878</ele>
        <time>2012-02-18T09:47:23Z</time>
      </trkpt>
      <trkpt lat="42.90115" lon="0.13363">
        <ele>1878</ele>
        <time>2012-02-18T09:47:26Z</time>
      </trkpt>
      <trkpt lat="42.90115" lon="0.13364">
        <ele>1878</ele>
        <time>2012-02-18T09:47:30Z</time>
      </trkpt>
      <trkpt lat="42.90115" lon="0.13366">
        <ele>1879</ele>
        <time>2012-02-18T09:47:33Z</time>
      </trkpt>
      <trkpt lat="42.90115" lon="0.13368">
        <ele>1879</ele>
        <time>2012-02-18T09:47:36Z</time>
      </trkpt>
      <trkpt lat="42.90115" lon="0.1337">
        <ele>1879</ele>
        <time>2012-02-18T09:47:39Z</time>
      </trkpt>
      <trkpt lat="42.90115" lon="0.13372">
        <ele>1880</ele>
        <time>2012-02-18T09:47:42Z</time>
      </trkpt>
      <trkpt lat="42.90115" lon="0.13374">
        <ele>1880</ele>
        <time>2012-02-18T09:47:45Z</time>
      </trkpt>
      <trkpt lat="42.90114" lon="0.13377">
        <ele>1881</ele>
        <time>2012-02-18T09:47:50Z</time>
      </trkpt>
      <trkpt lat="42.90114" lon="0.13379">
        <ele>1881</ele>
        <time>2012-02-18T09:47:53Z</time>
      </trkpt>
      <trkpt lat="42.90113" lon="0.13382">
        <ele>1882</ele>
        <time>2012-02-18T09:47:58Z</time>
      </trkpt>
      <trkpt lat="42.90112" lon="0.13384">
        <ele>1883</ele>
        <time>2012-02-18T09:48:01Z</time>
      </trkpt>
      <trkpt lat="42.9011" lon="0.13387">
        <ele>1884</ele>
        <time>2012-02-18T09:48:06Z</time>
      </trkpt>
      <trkpt lat="42.90107" lon="0.13389">
        <ele>1885</ele>
        <time>2012-02-18T09:48:11Z</time>
      </trkpt>
      <trkpt lat="42.90106" lon="0.13391">
        <ele>1885</ele>
        <time>2012-02-18T09:48:14Z</time>
      </trkpt>
      <trkpt lat="42.90105" lon="0.13393">
        <ele>1886</ele>
        <time>2012-02-18T09:48:18Z</time>
      </trkpt>
      <trkpt lat="42.90105" lon="0.13394">
        <ele>1886</ele>
        <time>2012-02-18T09:48:21Z</time>
      </trkpt>
      <trkpt lat="42.90105" lon="0.13396">
        <ele>1887</ele>
        <time>2012-02-18T09:48:24Z</time>
      </trkpt>
      <trkpt lat="42.90104" lon="0.13399">
        <ele>1887</ele>
        <time>2012-02-18T09:48:30Z</time>
      </trkpt>
      <trkpt lat="42.90103" lon="0.13401">
        <ele>1887</ele>
        <time>2012-02-18T09:48:33Z</time>
      </trkpt>
      <trkpt lat="42.90103" lon="0.13403">
        <ele>1888</ele>
        <time>2012-02-18T09:48:36Z</time>
      </trkpt>
      <trkpt lat="42.90102" lon="0.13407">
        <ele>1889</ele>
        <time>2012-02-18T09:48:42Z</time>
      </trkpt>
      <trkpt lat="42.90102" lon="0.1341">
        <ele>1890</ele>
        <time>2012-02-18T09:48:47Z</time>
      </trkpt>
      <trkpt lat="42.90101" lon="0.13413">
        <ele>1891</ele>
        <time>2012-02-18T09:48:53Z</time>
      </trkpt>
      <trkpt lat="42.901" lon="0.13417">
        <ele>1892</ele>
        <time>2012-02-18T09:49:00Z</time>
      </trkpt>
      <trkpt lat="42.901" lon="0.13421">
        <ele>1892</ele>
        <time>2012-02-18T09:49:06Z</time>
      </trkpt>
      <trkpt lat="42.90099" lon="0.13419">
        <ele>1892</ele>
        <time>2012-02-18T09:49:17Z</time>
      </trkpt>
      <trkpt lat="42.90097" lon="0.13417">
        <ele>1893</ele>
        <time>2012-02-18T09:49:22Z</time>
      </trkpt>
      <trkpt lat="42.90096" lon="0.13415">
        <ele>1893</ele>
        <time>2012-02-18T09:49:26Z</time>
      </trkpt>
      <trkpt lat="42.90095" lon="0.13414">
        <ele>1893</ele>
        <time>2012-02-18T09:49:30Z</time>
      </trkpt>
      <trkpt lat="42.90093" lon="0.13413">
        <ele>1893</ele>
        <time>2012-02-18T09:49:34Z</time>
      </trkpt>
      <trkpt lat="42.90092" lon="0.13411">
        <ele>1894</ele>
        <time>2012-02-18T09:49:37Z</time>
      </trkpt>
      <trkpt lat="42.90091" lon="0.1341">
        <ele>1894</ele>
        <time>2012-02-18T09:49:40Z</time>
      </trkpt>
      <trkpt lat="42.9009" lon="0.13408">
        <ele>1894</ele>
        <time>2012-02-18T09:49:43Z</time>
      </trkpt>
      <trkpt lat="42.90089" lon="0.13407">
        <ele>1895</ele>
        <time>2012-02-18T09:49:46Z</time>
      </trkpt>
      <trkpt lat="42.90088" lon="0.13406">
        <ele>1895</ele>
        <time>2012-02-18T09:49:50Z</time>
      </trkpt>
      <trkpt lat="42.90085" lon="0.13403">
        <ele>1896</ele>
        <time>2012-02-18T09:49:56Z</time>
      </trkpt>
      <trkpt lat="42.90083" lon="0.134">
        <ele>1897</ele>
        <time>2012-02-18T09:50:03Z</time>
      </trkpt>
      <trkpt lat="42.90081" lon="0.13399">
        <ele>1897</ele>
        <time>2012-02-18T09:50:07Z</time>
      </trkpt>
      <trkpt lat="42.9008" lon="0.13398">
        <ele>1898</ele>
        <time>2012-02-18T09:50:11Z</time>
      </trkpt>
      <trkpt lat="42.90078" lon="0.13395">
        <ele>1898</ele>
        <time>2012-02-18T09:50:18Z</time>
      </trkpt>
      <trkpt lat="42.90076" lon="0.13394">
        <ele>1899</ele>
        <time>2012-02-18T09:50:21Z</time>
      </trkpt>
      <trkpt lat="42.90074" lon="0.13392">
        <ele>1899</ele>
        <time>2012-02-18T09:50:27Z</time>
      </trkpt>
      <trkpt lat="42.90073" lon="0.13391">
        <ele>1900</ele>
        <time>2012-02-18T09:50:30Z</time>
      </trkpt>
      <trkpt lat="42.90072" lon="0.1339">
        <ele>1900</ele>
        <time>2012-02-18T09:50:34Z</time>
      </trkpt>
      <trkpt lat="42.9007" lon="0.13389">
        <ele>1900</ele>
        <time>2012-02-18T09:50:37Z</time>
      </trkpt>
      <trkpt lat="42.90069" lon="0.13388">
        <ele>1901</ele>
        <time>2012-02-18T09:50:40Z</time>
      </trkpt>
      <trkpt lat="42.90067" lon="0.13386">
        <ele>1902</ele>
        <time>2012-02-18T09:50:46Z</time>
      </trkpt>
      <trkpt lat="42.90066" lon="0.13385">
        <ele>1902</ele>
        <time>2012-02-18T09:50:49Z</time>
      </trkpt>
      <trkpt lat="42.90064" lon="0.13384">
        <ele>1903</ele>
        <time>2012-02-18T09:50:52Z</time>
      </trkpt>
      <trkpt lat="42.90063" lon="0.13383">
        <ele>1903</ele>
        <time>2012-02-18T09:50:55Z</time>
      </trkpt>
      <trkpt lat="42.90062" lon="0.13382">
        <ele>1903</ele>
        <time>2012-02-18T09:50:58Z</time>
      </trkpt>
      <trkpt lat="42.90061" lon="0.13381">
        <ele>1904</ele>
        <time>2012-02-18T09:51:01Z</time>
      </trkpt>
      <trkpt lat="42.90059" lon="0.13379">
        <ele>1904</ele>
        <time>2012-02-18T09:51:06Z</time>
      </trkpt>
      <trkpt lat="42.90058" lon="0.13378">
        <ele>1905</ele>
        <time>2012-02-18T09:51:09Z</time>
      </trkpt>
      <trkpt lat="42.90056" lon="0.13377">
        <ele>1905</ele>
        <time>2012-02-18T09:51:14Z</time>
      </trkpt>
      <trkpt lat="42.90055" lon="0.13376">
        <ele>1905</ele>
        <time>2012-02-18T09:51:17Z</time>
      </trkpt>
      <trkpt lat="42.90053" lon="0.13374">
        <ele>1906</ele>
        <time>2012-02-18T09:51:23Z</time>
      </trkpt>
      <trkpt lat="42.90052" lon="0.13373">
        <ele>1906</ele>
        <time>2012-02-18T09:51:26Z</time>
      </trkpt>
      <trkpt lat="42.90049" lon="0.13374">
        <ele>1908</ele>
        <time>2012-02-18T09:51:40Z</time>
      </trkpt>
      <trkpt lat="42.90049" lon="0.13377">
        <ele>1909</ele>
        <time>2012-02-18T09:51:45Z</time>
      </trkpt>
      <trkpt lat="42.90049" lon="0.13381">
        <ele>1909</ele>
        <time>2012-02-18T09:51:50Z</time>
      </trkpt>
      <trkpt lat="42.90049" lon="0.13385">
        <ele>1910</ele>
        <time>2012-02-18T09:51:54Z</time>
      </trkpt>
      <trkpt lat="42.90049" lon="0.13387">
        <ele>1911</ele>
        <time>2012-02-18T09:51:58Z</time>
      </trkpt>
      <trkpt lat="42.90048" lon="0.1339">
        <ele>1913</ele>
        <time>2012-02-18T09:52:04Z</time>
      </trkpt>
      <trkpt lat="42.90047" lon="0.13394">
        <ele>1913</ele>
        <time>2012-02-18T09:52:10Z</time>
      </trkpt>
      <trkpt lat="42.90047" lon="0.13395">
        <ele>1914</ele>
        <time>2012-02-18T09:52:13Z</time>
      </trkpt>
      <trkpt lat="42.90047" lon="0.13397">
        <ele>1914</ele>
        <time>2012-02-18T09:52:16Z</time>
      </trkpt>
      <trkpt lat="42.90046" lon="0.13401">
        <ele>1914</ele>
        <time>2012-02-18T09:52:22Z</time>
      </trkpt>
      <trkpt lat="42.90046" lon="0.13403">
        <ele>1915</ele>
        <time>2012-02-18T09:52:25Z</time>
      </trkpt>
      <trkpt lat="42.90046" lon="0.13406">
        <ele>1916</ele>
        <time>2012-02-18T09:52:29Z</time>
      </trkpt>
      <trkpt lat="42.90045" lon="0.13407">
        <ele>1916</ele>
        <time>2012-02-18T09:52:33Z</time>
      </trkpt>
      <trkpt lat="42.90045" lon="0.1341">
        <ele>1917</ele>
        <time>2012-02-18T09:52:38Z</time>
      </trkpt>
      <trkpt lat="42.90044" lon="0.13412">
        <ele>1918</ele>
        <time>2012-02-18T09:52:41Z</time>
      </trkpt>
      <trkpt lat="42.90044" lon="0.13412">
        <ele>1919</ele>
        <time>2012-02-18T09:53:01Z</time>
      </trkpt>
      <trkpt lat="42.90041" lon="0.1341">
        <ele>1919</ele>
        <time>2012-02-18T09:53:06Z</time>
      </trkpt>
      <trkpt lat="42.9004" lon="0.13408">
        <ele>1919</ele>
        <time>2012-02-18T09:53:10Z</time>
      </trkpt>
      <trkpt lat="42.90039" lon="0.13408">
        <ele>1919</ele>
        <time>2012-02-18T09:53:13Z</time>
      </trkpt>
      <trkpt lat="42.90036" lon="0.13405">
        <ele>1920</ele>
        <time>2012-02-18T09:53:19Z</time>
      </trkpt>
      <trkpt lat="42.90035" lon="0.13404">
        <ele>1921</ele>
        <time>2012-02-18T09:53:23Z</time>
      </trkpt>
      <trkpt lat="42.90034" lon="0.13402">
        <ele>1921</ele>
        <time>2012-02-18T09:53:27Z</time>
      </trkpt>
      <trkpt lat="42.90033" lon="0.13401">
        <ele>1921</ele>
        <time>2012-02-18T09:53:30Z</time>
      </trkpt>
      <trkpt lat="42.90031" lon="0.13398">
        <ele>1923</ele>
        <time>2012-02-18T09:53:35Z</time>
      </trkpt>
      <trkpt lat="42.90029" lon="0.13397">
        <ele>1924</ele>
        <time>2012-02-18T09:53:38Z</time>
      </trkpt>
      <trkpt lat="42.90028" lon="0.13395">
        <ele>1925</ele>
        <time>2012-02-18T09:53:42Z</time>
      </trkpt>
      <trkpt lat="42.90027" lon="0.13394">
        <ele>1925</ele>
        <time>2012-02-18T09:53:45Z</time>
      </trkpt>
      <trkpt lat="42.90025" lon="0.13392">
        <ele>1926</ele>
        <time>2012-02-18T09:53:51Z</time>
      </trkpt>
      <trkpt lat="42.90023" lon="0.1339">
        <ele>1927</ele>
        <time>2012-02-18T09:53:55Z</time>
      </trkpt>
      <trkpt lat="42.90022" lon="0.13389">
        <ele>1927</ele>
        <time>2012-02-18T09:53:58Z</time>
      </trkpt>
      <trkpt lat="42.90021" lon="0.13388">
        <ele>1928</ele>
        <time>2012-02-18T09:54:01Z</time>
      </trkpt>
      <trkpt lat="42.90018" lon="0.13385">
        <ele>1928</ele>
        <time>2012-02-18T09:54:06Z</time>
      </trkpt>
      <trkpt lat="42.90017" lon="0.13385">
        <ele>1929</ele>
        <time>2012-02-18T09:54:12Z</time>
      </trkpt>
      <trkpt lat="42.90014" lon="0.13383">
        <ele>1929</ele>
        <time>2012-02-18T09:54:18Z</time>
      </trkpt>
      <trkpt lat="42.90012" lon="0.13382">
        <ele>1929</ele>
        <time>2012-02-18T09:54:24Z</time>
      </trkpt>
      <trkpt lat="42.90009" lon="0.13381">
        <ele>1930</ele>
        <time>2012-02-18T09:54:29Z</time>
      </trkpt>
      <trkpt lat="42.90007" lon="0.1338">
        <ele>1930</ele>
        <time>2012-02-18T09:54:32Z</time>
      </trkpt>
      <trkpt lat="42.90006" lon="0.13379">
        <ele>1930</ele>
        <time>2012-02-18T09:54:35Z</time>
      </trkpt>
      <trkpt lat="42.90004" lon="0.13378">
        <ele>1931</ele>
        <time>2012-02-18T09:54:39Z</time>
      </trkpt>
      <trkpt lat="42.90002" lon="0.13377">
        <ele>1931</ele>
        <time>2012-02-18T09:54:43Z</time>
      </trkpt>
      <trkpt lat="42.89999" lon="0.13376">
        <ele>1932</ele>
        <time>2012-02-18T09:54:49Z</time>
      </trkpt>
      <trkpt lat="42.89997" lon="0.13375">
        <ele>1932</ele>
        <time>2012-02-18T09:54:52Z</time>
      </trkpt>
      <trkpt lat="42.89996" lon="0.13374">
        <ele>1932</ele>
        <time>2012-02-18T09:54:55Z</time>
      </trkpt>
      <trkpt lat="42.89993" lon="0.13371">
        <ele>1933</ele>
        <time>2012-02-18T09:55:01Z</time>
      </trkpt>
      <trkpt lat="42.89991" lon="0.13367">
        <ele>1934</ele>
        <time>2012-02-18T09:55:06Z</time>
      </trkpt>
      <trkpt lat="42.89989" lon="0.13363">
        <ele>1934</ele>
        <time>2012-02-18T09:55:12Z</time>
      </trkpt>
      <trkpt lat="42.89988" lon="0.1336">
        <ele>1934</ele>
        <time>2012-02-18T09:55:17Z</time>
      </trkpt>
      <trkpt lat="42.89988" lon="0.13355">
        <ele>1935</ele>
        <time>2012-02-18T09:55:21Z</time>
      </trkpt>
      <trkpt lat="42.89988" lon="0.13353">
        <ele>1935</ele>
        <time>2012-02-18T09:55:24Z</time>
      </trkpt>
      <trkpt lat="42.89988" lon="0.13349">
        <ele>1936</ele>
        <time>2012-02-18T09:55:28Z</time>
      </trkpt>
      <trkpt lat="42.89988" lon="0.13346">
        <ele>1936</ele>
        <time>2012-02-18T09:55:33Z</time>
      </trkpt>
      <trkpt lat="42.89989" lon="0.13342">
        <ele>1937</ele>
        <time>2012-02-18T09:55:37Z</time>
      </trkpt>
      <trkpt lat="42.89989" lon="0.13339">
        <ele>1938</ele>
        <time>2012-02-18T09:55:41Z</time>
      </trkpt>
      <trkpt lat="42.89989" lon="0.13336">
        <ele>1939</ele>
        <time>2012-02-18T09:55:45Z</time>
      </trkpt>
      <trkpt lat="42.89989" lon="0.13334">
        <ele>1939</ele>
        <time>2012-02-18T09:55:49Z</time>
      </trkpt>
      <trkpt lat="42.89989" lon="0.1333">
        <ele>1939</ele>
        <time>2012-02-18T09:55:54Z</time>
      </trkpt>
      <trkpt lat="42.89989" lon="0.13327">
        <ele>1940</ele>
        <time>2012-02-18T09:55:58Z</time>
      </trkpt>
      <trkpt lat="42.89989" lon="0.13324">
        <ele>1941</ele>
        <time>2012-02-18T09:56:01Z</time>
      </trkpt>
      <trkpt lat="42.89988" lon="0.13322">
        <ele>1942</ele>
        <time>2012-02-18T09:56:05Z</time>
      </trkpt>
      <trkpt lat="42.89988" lon="0.1332">
        <ele>1942</ele>
        <time>2012-02-18T09:56:08Z</time>
      </trkpt>
      <trkpt lat="42.89986" lon="0.13317">
        <ele>1942</ele>
        <time>2012-02-18T09:56:13Z</time>
      </trkpt>
      <trkpt lat="42.89983" lon="0.13318">
        <ele>1943</ele>
        <time>2012-02-18T09:56:20Z</time>
      </trkpt>
      <trkpt lat="42.89983" lon="0.13321">
        <ele>1944</ele>
        <time>2012-02-18T09:56:24Z</time>
      </trkpt>
      <trkpt lat="42.89982" lon="0.13325">
        <ele>1944</ele>
        <time>2012-02-18T09:56:27Z</time>
      </trkpt>
      <trkpt lat="42.89981" lon="0.13328">
        <ele>1944</ele>
        <time>2012-02-18T09:56:32Z</time>
      </trkpt>
      <trkpt lat="42.8998" lon="0.13329">
        <ele>1945</ele>
        <time>2012-02-18T09:56:35Z</time>
      </trkpt>
      <trkpt lat="42.89978" lon="0.13331">
        <ele>1945</ele>
        <time>2012-02-18T09:56:38Z</time>
      </trkpt>
      <trkpt lat="42.89977" lon="0.13331">
        <ele>1946</ele>
        <time>2012-02-18T09:56:45Z</time>
      </trkpt>
      <trkpt lat="42.89976" lon="0.13329">
        <ele>1946</ele>
        <time>2012-02-18T09:56:50Z</time>
      </trkpt>
      <trkpt lat="42.89974" lon="0.13329">
        <ele>1946</ele>
        <time>2012-02-18T09:56:54Z</time>
      </trkpt>
      <trkpt lat="42.89972" lon="0.13329">
        <ele>1947</ele>
        <time>2012-02-18T09:57:00Z</time>
      </trkpt>
      <trkpt lat="42.89968" lon="0.1333">
        <ele>1948</ele>
        <time>2012-02-18T09:57:06Z</time>
      </trkpt>
      <trkpt lat="42.89967" lon="0.1333">
        <ele>1948</ele>
        <time>2012-02-18T09:57:09Z</time>
      </trkpt>
      <trkpt lat="42.89964" lon="0.1333">
        <ele>1948</ele>
        <time>2012-02-18T09:57:14Z</time>
      </trkpt>
      <trkpt lat="42.89961" lon="0.1333">
        <ele>1948</ele>
        <time>2012-02-18T09:57:18Z</time>
      </trkpt>
      <trkpt lat="42.89959" lon="0.13327">
        <ele>1948</ele>
        <time>2012-02-18T09:57:23Z</time>
      </trkpt>
      <trkpt lat="42.89957" lon="0.13324">
        <ele>1948</ele>
        <time>2012-02-18T09:57:26Z</time>
      </trkpt>
      <trkpt lat="42.89956" lon="0.1332">
        <ele>1949</ele>
        <time>2012-02-18T09:57:30Z</time>
      </trkpt>
      <trkpt lat="42.89955" lon="0.13318">
        <ele>1950</ele>
        <time>2012-02-18T09:57:35Z</time>
      </trkpt>
      <trkpt lat="42.89954" lon="0.13314">
        <ele>1950</ele>
        <time>2012-02-18T09:57:39Z</time>
      </trkpt>
      <trkpt lat="42.89952" lon="0.1331">
        <ele>1951</ele>
        <time>2012-02-18T09:57:45Z</time>
      </trkpt>
      <trkpt lat="42.89951" lon="0.13308">
        <ele>1951</ele>
        <time>2012-02-18T09:57:48Z</time>
      </trkpt>
      <trkpt lat="42.89949" lon="0.13306">
        <ele>1951</ele>
        <time>2012-02-18T09:57:51Z</time>
      </trkpt>
      <trkpt lat="42.89948" lon="0.13307">
        <ele>1952</ele>
        <time>2012-02-18T09:57:55Z</time>
      </trkpt>
      <trkpt lat="42.89946" lon="0.13309">
        <ele>1952</ele>
        <time>2012-02-18T09:57:58Z</time>
      </trkpt>
      <trkpt lat="42.89946" lon="0.13311">
        <ele>1952</ele>
        <time>2012-02-18T09:58:01Z</time>
      </trkpt>
      <trkpt lat="42.89944" lon="0.13312">
        <ele>1953</ele>
        <time>2012-02-18T09:58:10Z</time>
      </trkpt>
      <trkpt lat="42.89943" lon="0.13314">
        <ele>1953</ele>
        <time>2012-02-18T09:58:13Z</time>
      </trkpt>
      <trkpt lat="42.89942" lon="0.13317">
        <ele>1953</ele>
        <time>2012-02-18T09:58:17Z</time>
      </trkpt>
      <trkpt lat="42.89941" lon="0.13319">
        <ele>1954</ele>
        <time>2012-02-18T09:58:20Z</time>
      </trkpt>
      <trkpt lat="42.8994" lon="0.1332">
        <ele>1954</ele>
        <time>2012-02-18T09:58:23Z</time>
      </trkpt>
      <trkpt lat="42.89938" lon="0.1332">
        <ele>1955</ele>
        <time>2012-02-18T09:58:29Z</time>
      </trkpt>
      <trkpt lat="42.89938" lon="0.13317">
        <ele>1956</ele>
        <time>2012-02-18T09:58:33Z</time>
      </trkpt>
      <trkpt lat="42.89937" lon="0.13315">
        <ele>1956</ele>
        <time>2012-02-18T09:58:36Z</time>
      </trkpt>
      <trkpt lat="42.89936" lon="0.13311">
        <ele>1957</ele>
        <time>2012-02-18T09:58:41Z</time>
      </trkpt>
      <trkpt lat="42.89935" lon="0.1331">
        <ele>1958</ele>
        <time>2012-02-18T09:58:44Z</time>
      </trkpt>
      <trkpt lat="42.89934" lon="0.13306">
        <ele>1958</ele>
        <time>2012-02-18T09:58:48Z</time>
      </trkpt>
      <trkpt lat="42.89933" lon="0.13303">
        <ele>1959</ele>
        <time>2012-02-18T09:58:54Z</time>
      </trkpt>
      <trkpt lat="42.89932" lon="0.13305">
        <ele>1960</ele>
        <time>2012-02-18T09:58:58Z</time>
      </trkpt>
      <trkpt lat="42.8993" lon="0.13308">
        <ele>1960</ele>
        <time>2012-02-18T09:59:03Z</time>
      </trkpt>
      <trkpt lat="42.89929" lon="0.1331">
        <ele>1960</ele>
        <time>2012-02-18T09:59:06Z</time>
      </trkpt>
      <trkpt lat="42.89928" lon="0.13312">
        <ele>1960</ele>
        <time>2012-02-18T09:59:09Z</time>
      </trkpt>
      <trkpt lat="42.89926" lon="0.13315">
        <ele>1960</ele>
        <time>2012-02-18T09:59:13Z</time>
      </trkpt>
      <trkpt lat="42.89925" lon="0.13317">
        <ele>1961</ele>
        <time>2012-02-18T09:59:17Z</time>
      </trkpt>
      <trkpt lat="42.89923" lon="0.1332">
        <ele>1961</ele>
        <time>2012-02-18T09:59:22Z</time>
      </trkpt>
      <trkpt lat="42.89922" lon="0.13321">
        <ele>1961</ele>
        <time>2012-02-18T09:59:25Z</time>
      </trkpt>
      <trkpt lat="42.89921" lon="0.13323">
        <ele>1962</ele>
        <time>2012-02-18T09:59:28Z</time>
      </trkpt>
      <trkpt lat="42.8992" lon="0.13325">
        <ele>1962</ele>
        <time>2012-02-18T09:59:31Z</time>
      </trkpt>
      <trkpt lat="42.89918" lon="0.13326">
        <ele>1963</ele>
        <time>2012-02-18T09:59:34Z</time>
      </trkpt>
      <trkpt lat="42.89917" lon="0.13328">
        <ele>1963</ele>
        <time>2012-02-18T09:59:37Z</time>
      </trkpt>
      <trkpt lat="42.89916" lon="0.1333">
        <ele>1963</ele>
        <time>2012-02-18T09:59:40Z</time>
      </trkpt>
      <trkpt lat="42.89914" lon="0.13333">
        <ele>1964</ele>
        <time>2012-02-18T09:59:43Z</time>
      </trkpt>
      <trkpt lat="42.89914" lon="0.13336">
        <ele>1965</ele>
        <time>2012-02-18T09:59:47Z</time>
      </trkpt>
      <trkpt lat="42.89913" lon="0.13337">
        <ele>1966</ele>
        <time>2012-02-18T10:00:02Z</time>
      </trkpt>
      <trkpt lat="42.89912" lon="0.13334">
        <ele>1966</ele>
        <time>2012-02-18T10:00:05Z</time>
      </trkpt>
      <trkpt lat="42.89911" lon="0.13332">
        <ele>1966</ele>
        <time>2012-02-18T10:00:08Z</time>
      </trkpt>
      <trkpt lat="42.8991" lon="0.13329">
        <ele>1967</ele>
        <time>2012-02-18T10:00:13Z</time>
      </trkpt>
      <trkpt lat="42.89909" lon="0.13325">
        <ele>1968</ele>
        <time>2012-02-18T10:00:17Z</time>
      </trkpt>
      <trkpt lat="42.89908" lon="0.13323">
        <ele>1969</ele>
        <time>2012-02-18T10:00:20Z</time>
      </trkpt>
      <trkpt lat="42.89907" lon="0.13322">
        <ele>1969</ele>
        <time>2012-02-18T10:00:23Z</time>
      </trkpt>
      <trkpt lat="42.89906" lon="0.1332">
        <ele>1970</ele>
        <time>2012-02-18T10:00:27Z</time>
      </trkpt>
      <trkpt lat="42.89905" lon="0.13319">
        <ele>1970</ele>
        <time>2012-02-18T10:00:30Z</time>
      </trkpt>
      <trkpt lat="42.89904" lon="0.13317">
        <ele>1970</ele>
        <time>2012-02-18T10:00:34Z</time>
      </trkpt>
      <trkpt lat="42.89902" lon="0.13316">
        <ele>1970</ele>
        <time>2012-02-18T10:00:37Z</time>
      </trkpt>
      <trkpt lat="42.89901" lon="0.13312">
        <ele>1971</ele>
        <time>2012-02-18T10:00:42Z</time>
      </trkpt>
      <trkpt lat="42.899" lon="0.13311">
        <ele>1971</ele>
        <time>2012-02-18T10:00:45Z</time>
      </trkpt>
      <trkpt lat="42.89899" lon="0.13309">
        <ele>1971</ele>
        <time>2012-02-18T10:00:48Z</time>
      </trkpt>
      <trkpt lat="42.89899" lon="0.13307">
        <ele>1972</ele>
        <time>2012-02-18T10:00:51Z</time>
      </trkpt>
      <trkpt lat="42.89898" lon="0.13306">
        <ele>1972</ele>
        <time>2012-02-18T10:00:55Z</time>
      </trkpt>
      <trkpt lat="42.89898" lon="0.13303">
        <ele>1972</ele>
        <time>2012-02-18T10:00:59Z</time>
      </trkpt>
      <trkpt lat="42.89897" lon="0.13299">
        <ele>1973</ele>
        <time>2012-02-18T10:01:03Z</time>
      </trkpt>
      <trkpt lat="42.89896" lon="0.13296">
        <ele>1974</ele>
        <time>2012-02-18T10:01:08Z</time>
      </trkpt>
      <trkpt lat="42.89895" lon="0.13294">
        <ele>1975</ele>
        <time>2012-02-18T10:01:11Z</time>
      </trkpt>
      <trkpt lat="42.89894" lon="0.13293">
        <ele>1976</ele>
        <time>2012-02-18T10:01:14Z</time>
      </trkpt>
      <trkpt lat="42.89893" lon="0.13291">
        <ele>1976</ele>
        <time>2012-02-18T10:01:17Z</time>
      </trkpt>
      <trkpt lat="42.89891" lon="0.1329">
        <ele>1977</ele>
        <time>2012-02-18T10:01:20Z</time>
      </trkpt>
      <trkpt lat="42.89888" lon="0.13288">
        <ele>1977</ele>
        <time>2012-02-18T10:01:24Z</time>
      </trkpt>
      <trkpt lat="42.89885" lon="0.13287">
        <ele>1977</ele>
        <time>2012-02-18T10:01:30Z</time>
      </trkpt>
      <trkpt lat="42.89883" lon="0.13286">
        <ele>1977</ele>
        <time>2012-02-18T10:01:33Z</time>
      </trkpt>
      <trkpt lat="42.89881" lon="0.13284">
        <ele>1978</ele>
        <time>2012-02-18T10:01:37Z</time>
      </trkpt>
      <trkpt lat="42.89879" lon="0.13287">
        <ele>1978</ele>
        <time>2012-02-18T10:01:42Z</time>
      </trkpt>
      <trkpt lat="42.89878" lon="0.13291">
        <ele>1978</ele>
        <time>2012-02-18T10:01:46Z</time>
      </trkpt>
      <trkpt lat="42.89877" lon="0.13294">
        <ele>1978</ele>
        <time>2012-02-18T10:01:51Z</time>
      </trkpt>
      <trkpt lat="42.89877" lon="0.13297">
        <ele>1979</ele>
        <time>2012-02-18T10:01:55Z</time>
      </trkpt>
      <trkpt lat="42.89876" lon="0.13301">
        <ele>1979</ele>
        <time>2012-02-18T10:01:58Z</time>
      </trkpt>
      <trkpt lat="42.89875" lon="0.13304">
        <ele>1980</ele>
        <time>2012-02-18T10:02:02Z</time>
      </trkpt>
      <trkpt lat="42.89874" lon="0.13307">
        <ele>1981</ele>
        <time>2012-02-18T10:02:07Z</time>
      </trkpt>
      <trkpt lat="42.89874" lon="0.13309">
        <ele>1981</ele>
        <time>2012-02-18T10:02:10Z</time>
      </trkpt>
      <trkpt lat="42.89873" lon="0.13313">
        <ele>1982</ele>
        <time>2012-02-18T10:02:14Z</time>
      </trkpt>
      <trkpt lat="42.89872" lon="0.13316">
        <ele>1982</ele>
        <time>2012-02-18T10:02:19Z</time>
      </trkpt>
      <trkpt lat="42.89872" lon="0.13319">
        <ele>1982</ele>
        <time>2012-02-18T10:02:23Z</time>
      </trkpt>
      <trkpt lat="42.89871" lon="0.13322">
        <ele>1983</ele>
        <time>2012-02-18T10:02:26Z</time>
      </trkpt>
      <trkpt lat="42.89871" lon="0.13324">
        <ele>1983</ele>
        <time>2012-02-18T10:02:29Z</time>
      </trkpt>
      <trkpt lat="42.8987" lon="0.13326">
        <ele>1984</ele>
        <time>2012-02-18T10:02:33Z</time>
      </trkpt>
      <trkpt lat="42.89869" lon="0.13324">
        <ele>1985</ele>
        <time>2012-02-18T10:02:42Z</time>
      </trkpt>
      <trkpt lat="42.89867" lon="0.13321">
        <ele>1985</ele>
        <time>2012-02-18T10:02:48Z</time>
      </trkpt>
      <trkpt lat="42.89866" lon="0.13319">
        <ele>1985</ele>
        <time>2012-02-18T10:02:51Z</time>
      </trkpt>
      <trkpt lat="42.89865" lon="0.13318">
        <ele>1985</ele>
        <time>2012-02-18T10:02:54Z</time>
      </trkpt>
      <trkpt lat="42.89864" lon="0.13317">
        <ele>1986</ele>
        <time>2012-02-18T10:02:57Z</time>
      </trkpt>
      <trkpt lat="42.89861" lon="0.13313">
        <ele>1987</ele>
        <time>2012-02-18T10:03:04Z</time>
      </trkpt>
      <trkpt lat="42.89859" lon="0.1331">
        <ele>1988</ele>
        <time>2012-02-18T10:03:09Z</time>
      </trkpt>
      <trkpt lat="42.89858" lon="0.13307">
        <ele>1988</ele>
        <time>2012-02-18T10:03:14Z</time>
      </trkpt>
      <trkpt lat="42.89857" lon="0.13305">
        <ele>1989</ele>
        <time>2012-02-18T10:03:18Z</time>
      </trkpt>
      <trkpt lat="42.89856" lon="0.13307">
        <ele>1990</ele>
        <time>2012-02-18T10:03:35Z</time>
      </trkpt>
      <trkpt lat="42.89856" lon="0.13311">
        <ele>1990</ele>
        <time>2012-02-18T10:03:40Z</time>
      </trkpt>
      <trkpt lat="42.89856" lon="0.13315">
        <ele>1990</ele>
        <time>2012-02-18T10:03:44Z</time>
      </trkpt>
      <trkpt lat="42.89857" lon="0.13317">
        <ele>1990</ele>
        <time>2012-02-18T10:03:49Z</time>
      </trkpt>
      <trkpt lat="42.89857" lon="0.13319">
        <ele>1990</ele>
        <time>2012-02-18T10:03:53Z</time>
      </trkpt>
      <trkpt lat="42.89857" lon="0.13323">
        <ele>1990</ele>
        <time>2012-02-18T10:03:57Z</time>
      </trkpt>
      <trkpt lat="42.89858" lon="0.13325">
        <ele>1991</ele>
        <time>2012-02-18T10:04:00Z</time>
      </trkpt>
      <trkpt lat="42.89858" lon="0.13328">
        <ele>1991</ele>
        <time>2012-02-18T10:04:05Z</time>
      </trkpt>
      <trkpt lat="42.89857" lon="0.13331">
        <ele>1992</ele>
        <time>2012-02-18T10:04:09Z</time>
      </trkpt>
      <trkpt lat="42.89857" lon="0.13335">
        <ele>1993</ele>
        <time>2012-02-18T10:04:14Z</time>
      </trkpt>
      <trkpt lat="42.89856" lon="0.13338">
        <ele>1994</ele>
        <time>2012-02-18T10:04:18Z</time>
      </trkpt>
      <trkpt lat="42.89856" lon="0.13341">
        <ele>1994</ele>
        <time>2012-02-18T10:04:22Z</time>
      </trkpt>
      <trkpt lat="42.89855" lon="0.13341">
        <ele>1995</ele>
        <time>2012-02-18T10:04:41Z</time>
      </trkpt>
      <trkpt lat="42.89855" lon="0.1334">
        <ele>1995</ele>
        <time>2012-02-18T10:04:45Z</time>
      </trkpt>
      <trkpt lat="42.89854" lon="0.13336">
        <ele>1995</ele>
        <time>2012-02-18T10:04:49Z</time>
      </trkpt>
      <trkpt lat="42.89852" lon="0.13333">
        <ele>1995</ele>
        <time>2012-02-18T10:04:53Z</time>
      </trkpt>
      <trkpt lat="42.89851" lon="0.13331">
        <ele>1996</ele>
        <time>2012-02-18T10:04:56Z</time>
      </trkpt>
      <trkpt lat="42.8985" lon="0.13329">
        <ele>1997</ele>
        <time>2012-02-18T10:05:01Z</time>
      </trkpt>
      <trkpt lat="42.89848" lon="0.13325">
        <ele>1997</ele>
        <time>2012-02-18T10:05:07Z</time>
      </trkpt>
      <trkpt lat="42.89845" lon="0.13322">
        <ele>1997</ele>
        <time>2012-02-18T10:05:12Z</time>
      </trkpt>
      <trkpt lat="42.89844" lon="0.13318">
        <ele>1998</ele>
        <time>2012-02-18T10:05:16Z</time>
      </trkpt>
      <trkpt lat="42.89843" lon="0.13315">
        <ele>1998</ele>
        <time>2012-02-18T10:05:20Z</time>
      </trkpt>
      <trkpt lat="42.89842" lon="0.13312">
        <ele>1998</ele>
        <time>2012-02-18T10:05:25Z</time>
      </trkpt>
      <trkpt lat="42.89841" lon="0.13311">
        <ele>2000</ele>
        <time>2012-02-18T10:05:48Z</time>
      </trkpt>
      <trkpt lat="42.8984" lon="0.13313">
        <ele>2001</ele>
        <time>2012-02-18T10:05:56Z</time>
      </trkpt>
      <trkpt lat="42.89838" lon="0.13316">
        <ele>2001</ele>
        <time>2012-02-18T10:06:01Z</time>
      </trkpt>
      <trkpt lat="42.89836" lon="0.1332">
        <ele>2001</ele>
        <time>2012-02-18T10:06:06Z</time>
      </trkpt>
      <trkpt lat="42.89834" lon="0.13324">
        <ele>2001</ele>
        <time>2012-02-18T10:06:12Z</time>
      </trkpt>
      <trkpt lat="42.89833" lon="0.13326">
        <ele>2001</ele>
        <time>2012-02-18T10:06:15Z</time>
      </trkpt>
      <trkpt lat="42.89832" lon="0.13329">
        <ele>2002</ele>
        <time>2012-02-18T10:06:19Z</time>
      </trkpt>
      <trkpt lat="42.8983" lon="0.13332">
        <ele>2003</ele>
        <time>2012-02-18T10:06:23Z</time>
      </trkpt>
      <trkpt lat="42.8983" lon="0.13334">
        <ele>2003</ele>
        <time>2012-02-18T10:06:26Z</time>
      </trkpt>
      <trkpt lat="42.89828" lon="0.13337">
        <ele>2004</ele>
        <time>2012-02-18T10:06:30Z</time>
      </trkpt>
      <trkpt lat="42.89827" lon="0.13339">
        <ele>2004</ele>
        <time>2012-02-18T10:06:34Z</time>
      </trkpt>
      <trkpt lat="42.89826" lon="0.1334">
        <ele>2005</ele>
        <time>2012-02-18T10:06:37Z</time>
      </trkpt>
      <trkpt lat="42.89825" lon="0.13339">
        <ele>2005</ele>
        <time>2012-02-18T10:06:48Z</time>
      </trkpt>
      <trkpt lat="42.89824" lon="0.13335">
        <ele>2006</ele>
        <time>2012-02-18T10:06:52Z</time>
      </trkpt>
      <trkpt lat="42.89823" lon="0.13331">
        <ele>2007</ele>
        <time>2012-02-18T10:06:58Z</time>
      </trkpt>
      <trkpt lat="42.89822" lon="0.13329">
        <ele>2007</ele>
        <time>2012-02-18T10:07:01Z</time>
      </trkpt>
      <trkpt lat="42.8982" lon="0.13326">
        <ele>2009</ele>
        <time>2012-02-18T10:07:07Z</time>
      </trkpt>
      <trkpt lat="42.89819" lon="0.13325">
        <ele>2009</ele>
        <time>2012-02-18T10:07:10Z</time>
      </trkpt>
      <trkpt lat="42.89816" lon="0.13322">
        <ele>2010</ele>
        <time>2012-02-18T10:07:16Z</time>
      </trkpt>
      <trkpt lat="42.89814" lon="0.13322">
        <ele>2010</ele>
        <time>2012-02-18T10:07:19Z</time>
      </trkpt>
      <trkpt lat="42.89813" lon="0.13326">
        <ele>2011</ele>
        <time>2012-02-18T10:07:24Z</time>
      </trkpt>
      <trkpt lat="42.89812" lon="0.13328">
        <ele>2011</ele>
        <time>2012-02-18T10:07:28Z</time>
      </trkpt>
      <trkpt lat="42.89811" lon="0.1333">
        <ele>2011</ele>
        <time>2012-02-18T10:07:31Z</time>
      </trkpt>
      <trkpt lat="42.8981" lon="0.13334">
        <ele>2012</ele>
        <time>2012-02-18T10:07:36Z</time>
      </trkpt>
      <trkpt lat="42.89809" lon="0.13337">
        <ele>2012</ele>
        <time>2012-02-18T10:07:40Z</time>
      </trkpt>
      <trkpt lat="42.89808" lon="0.13339">
        <ele>2013</ele>
        <time>2012-02-18T10:07:43Z</time>
      </trkpt>
      <trkpt lat="42.89806" lon="0.13342">
        <ele>2013</ele>
        <time>2012-02-18T10:07:49Z</time>
      </trkpt>
      <trkpt lat="42.89804" lon="0.13345">
        <ele>2015</ele>
        <time>2012-02-18T10:07:55Z</time>
      </trkpt>
      <trkpt lat="42.89802" lon="0.13345">
        <ele>2015</ele>
        <time>2012-02-18T10:07:58Z</time>
      </trkpt>
      <trkpt lat="42.898" lon="0.13343">
        <ele>2015</ele>
        <time>2012-02-18T10:08:03Z</time>
      </trkpt>
      <trkpt lat="42.89798" lon="0.13342">
        <ele>2015</ele>
        <time>2012-02-18T10:08:06Z</time>
      </trkpt>
      <trkpt lat="42.89797" lon="0.13342">
        <ele>2015</ele>
        <time>2012-02-18T10:08:09Z</time>
      </trkpt>
      <trkpt lat="42.89795" lon="0.13341">
        <ele>2016</ele>
        <time>2012-02-18T10:08:12Z</time>
      </trkpt>
      <trkpt lat="42.89793" lon="0.1334">
        <ele>2016</ele>
        <time>2012-02-18T10:08:16Z</time>
      </trkpt>
      <trkpt lat="42.8979" lon="0.1334">
        <ele>2017</ele>
        <time>2012-02-18T10:08:20Z</time>
      </trkpt>
      <trkpt lat="42.89788" lon="0.1334">
        <ele>2017</ele>
        <time>2012-02-18T10:08:24Z</time>
      </trkpt>
      <trkpt lat="42.89785" lon="0.1334">
        <ele>2017</ele>
        <time>2012-02-18T10:08:27Z</time>
      </trkpt>
      <trkpt lat="42.89785" lon="0.13344">
        <ele>2018</ele>
        <time>2012-02-18T10:08:32Z</time>
      </trkpt>
      <trkpt lat="42.89785" lon="0.13347">
        <ele>2018</ele>
        <time>2012-02-18T10:08:36Z</time>
      </trkpt>
      <trkpt lat="42.89786" lon="0.1335">
        <ele>2019</ele>
        <time>2012-02-18T10:08:39Z</time>
      </trkpt>
      <trkpt lat="42.89786" lon="0.13353">
        <ele>2019</ele>
        <time>2012-02-18T10:08:44Z</time>
      </trkpt>
      <trkpt lat="42.89786" lon="0.13355">
        <ele>2020</ele>
        <time>2012-02-18T10:08:47Z</time>
      </trkpt>
      <trkpt lat="42.89786" lon="0.13358">
        <ele>2020</ele>
        <time>2012-02-18T10:08:51Z</time>
      </trkpt>
      <trkpt lat="42.89787" lon="0.13362">
        <ele>2020</ele>
        <time>2012-02-18T10:08:54Z</time>
      </trkpt>
      <trkpt lat="42.89787" lon="0.13365">
        <ele>2021</ele>
        <time>2012-02-18T10:08:58Z</time>
      </trkpt>
      <trkpt lat="42.89787" lon="0.13368">
        <ele>2021</ele>
        <time>2012-02-18T10:09:02Z</time>
      </trkpt>
      <trkpt lat="42.89788" lon="0.13372">
        <ele>2022</ele>
        <time>2012-02-18T10:09:08Z</time>
      </trkpt>
      <trkpt lat="42.89789" lon="0.13374">
        <ele>2022</ele>
        <time>2012-02-18T10:09:11Z</time>
      </trkpt>
      <trkpt lat="42.89789" lon="0.13375">
        <ele>2022</ele>
        <time>2012-02-18T10:09:14Z</time>
      </trkpt>
      <trkpt lat="42.8979" lon="0.13378">
        <ele>2023</ele>
        <time>2012-02-18T10:09:19Z</time>
      </trkpt>
      <trkpt lat="42.8979" lon="0.1338">
        <ele>2023</ele>
        <time>2012-02-18T10:09:22Z</time>
      </trkpt>
      <trkpt lat="42.8979" lon="0.13384">
        <ele>2023</ele>
        <time>2012-02-18T10:09:26Z</time>
      </trkpt>
      <trkpt lat="42.89791" lon="0.13386">
        <ele>2024</ele>
        <time>2012-02-18T10:09:35Z</time>
      </trkpt>
      <trkpt lat="42.8979" lon="0.13385">
        <ele>2024</ele>
        <time>2012-02-18T10:09:43Z</time>
      </trkpt>
      <trkpt lat="42.89789" lon="0.13383">
        <ele>2024</ele>
        <time>2012-02-18T10:09:57Z</time>
      </trkpt>
      <trkpt lat="42.89788" lon="0.13382">
        <ele>2024</ele>
        <time>2012-02-18T10:10:01Z</time>
      </trkpt>
      <trkpt lat="42.89785" lon="0.13381">
        <ele>2024</ele>
        <time>2012-02-18T10:10:06Z</time>
      </trkpt>
      <trkpt lat="42.89784" lon="0.1338">
        <ele>2025</ele>
        <time>2012-02-18T10:10:09Z</time>
      </trkpt>
      <trkpt lat="42.89782" lon="0.13379">
        <ele>2025</ele>
        <time>2012-02-18T10:10:13Z</time>
      </trkpt>
      <trkpt lat="42.89779" lon="0.13378">
        <ele>2026</ele>
        <time>2012-02-18T10:10:18Z</time>
      </trkpt>
      <trkpt lat="42.89777" lon="0.13379">
        <ele>2027</ele>
        <time>2012-02-18T10:10:30Z</time>
      </trkpt>
      <trkpt lat="42.89778" lon="0.13383">
        <ele>2027</ele>
        <time>2012-02-18T10:10:33Z</time>
      </trkpt>
      <trkpt lat="42.89779" lon="0.13386">
        <ele>2028</ele>
        <time>2012-02-18T10:10:38Z</time>
      </trkpt>
      <trkpt lat="42.8978" lon="0.13388">
        <ele>2028</ele>
        <time>2012-02-18T10:10:41Z</time>
      </trkpt>
      <trkpt lat="42.8978" lon="0.1339">
        <ele>2029</ele>
        <time>2012-02-18T10:10:44Z</time>
      </trkpt>
      <trkpt lat="42.89781" lon="0.13392">
        <ele>2029</ele>
        <time>2012-02-18T10:10:47Z</time>
      </trkpt>
      <trkpt lat="42.89781" lon="0.13395">
        <ele>2030</ele>
        <time>2012-02-18T10:10:52Z</time>
      </trkpt>
      <trkpt lat="42.89781" lon="0.13399">
        <ele>2031</ele>
        <time>2012-02-18T10:10:56Z</time>
      </trkpt>
      <trkpt lat="42.89782" lon="0.13402">
        <ele>2031</ele>
        <time>2012-02-18T10:10:59Z</time>
      </trkpt>
      <trkpt lat="42.89782" lon="0.13406">
        <ele>2032</ele>
        <time>2012-02-18T10:11:03Z</time>
      </trkpt>
      <trkpt lat="42.89782" lon="0.13409">
        <ele>2033</ele>
        <time>2012-02-18T10:11:08Z</time>
      </trkpt>
      <trkpt lat="42.89782" lon="0.13412">
        <ele>2033</ele>
        <time>2012-02-18T10:11:12Z</time>
      </trkpt>
      <trkpt lat="42.89782" lon="0.13415">
        <ele>2034</ele>
        <time>2012-02-18T10:11:16Z</time>
      </trkpt>
      <trkpt lat="42.89782" lon="0.13418">
        <ele>2034</ele>
        <time>2012-02-18T10:11:20Z</time>
      </trkpt>
      <trkpt lat="42.89782" lon="0.13421">
        <ele>2035</ele>
        <time>2012-02-18T10:11:24Z</time>
      </trkpt>
      <trkpt lat="42.89782" lon="0.13424">
        <ele>2036</ele>
        <time>2012-02-18T10:11:28Z</time>
      </trkpt>
      <trkpt lat="42.89781" lon="0.13428">
        <ele>2036</ele>
        <time>2012-02-18T10:11:33Z</time>
      </trkpt>
      <trkpt lat="42.89781" lon="0.13431">
        <ele>2037</ele>
        <time>2012-02-18T10:11:37Z</time>
      </trkpt>
      <trkpt lat="42.89781" lon="0.13434">
        <ele>2037</ele>
        <time>2012-02-18T10:11:42Z</time>
      </trkpt>
      <trkpt lat="42.8978" lon="0.13436">
        <ele>2037</ele>
        <time>2012-02-18T10:11:45Z</time>
      </trkpt>
      <trkpt lat="42.8978" lon="0.13437">
        <ele>2038</ele>
        <time>2012-02-18T10:11:48Z</time>
      </trkpt>
      <trkpt lat="42.89778" lon="0.13438">
        <ele>2039</ele>
        <time>2012-02-18T10:11:51Z</time>
      </trkpt>
      <trkpt lat="42.89777" lon="0.13438">
        <ele>2039</ele>
        <time>2012-02-18T10:11:55Z</time>
      </trkpt>
      <trkpt lat="42.89775" lon="0.13437">
        <ele>2040</ele>
        <time>2012-02-18T10:11:58Z</time>
      </trkpt>
      <trkpt lat="42.89774" lon="0.13437">
        <ele>2040</ele>
        <time>2012-02-18T10:12:01Z</time>
      </trkpt>
      <trkpt lat="42.89771" lon="0.13435">
        <ele>2041</ele>
        <time>2012-02-18T10:12:07Z</time>
      </trkpt>
      <trkpt lat="42.89769" lon="0.13433">
        <ele>2041</ele>
        <time>2012-02-18T10:12:11Z</time>
      </trkpt>
      <trkpt lat="42.89767" lon="0.13433">
        <ele>2041</ele>
        <time>2012-02-18T10:12:14Z</time>
      </trkpt>
      <trkpt lat="42.89766" lon="0.13432">
        <ele>2041</ele>
        <time>2012-02-18T10:12:17Z</time>
      </trkpt>
      <trkpt lat="42.89763" lon="0.13432">
        <ele>2042</ele>
        <time>2012-02-18T10:12:22Z</time>
      </trkpt>
      <trkpt lat="42.8976" lon="0.13431">
        <ele>2042</ele>
        <time>2012-02-18T10:12:27Z</time>
      </trkpt>
      <trkpt lat="42.89759" lon="0.13429">
        <ele>2042</ele>
        <time>2012-02-18T10:12:30Z</time>
      </trkpt>
      <trkpt lat="42.89757" lon="0.13426">
        <ele>2044</ele>
        <time>2012-02-18T10:12:37Z</time>
      </trkpt>
      <trkpt lat="42.89756" lon="0.13425">
        <ele>2044</ele>
        <time>2012-02-18T10:12:46Z</time>
      </trkpt>
      <trkpt lat="42.89754" lon="0.13424">
        <ele>2044</ele>
        <time>2012-02-18T10:12:49Z</time>
      </trkpt>
      <trkpt lat="42.89753" lon="0.13422">
        <ele>2045</ele>
        <time>2012-02-18T10:12:52Z</time>
      </trkpt>
      <trkpt lat="42.89752" lon="0.13421">
        <ele>2045</ele>
        <time>2012-02-18T10:12:55Z</time>
      </trkpt>
      <trkpt lat="42.8975" lon="0.13419">
        <ele>2046</ele>
        <time>2012-02-18T10:12:59Z</time>
      </trkpt>
      <trkpt lat="42.89749" lon="0.13418">
        <ele>2046</ele>
        <time>2012-02-18T10:13:02Z</time>
      </trkpt>
      <trkpt lat="42.89748" lon="0.13417">
        <ele>2047</ele>
        <time>2012-02-18T10:13:06Z</time>
      </trkpt>
      <trkpt lat="42.89747" lon="0.13415">
        <ele>2047</ele>
        <time>2012-02-18T10:13:09Z</time>
      </trkpt>
      <trkpt lat="42.89746" lon="0.13414">
        <ele>2047</ele>
        <time>2012-02-18T10:13:12Z</time>
      </trkpt>
      <trkpt lat="42.89744" lon="0.13411">
        <ele>2048</ele>
        <time>2012-02-18T10:13:17Z</time>
      </trkpt>
      <trkpt lat="42.89742" lon="0.13411">
        <ele>2049</ele>
        <time>2012-02-18T10:13:20Z</time>
      </trkpt>
      <trkpt lat="42.89739" lon="0.13412">
        <ele>2050</ele>
        <time>2012-02-18T10:13:26Z</time>
      </trkpt>
      <trkpt lat="42.89738" lon="0.13414">
        <ele>2050</ele>
        <time>2012-02-18T10:13:29Z</time>
      </trkpt>
      <trkpt lat="42.89737" lon="0.13416">
        <ele>2050</ele>
        <time>2012-02-18T10:13:32Z</time>
      </trkpt>
      <trkpt lat="42.89735" lon="0.13417">
        <ele>2051</ele>
        <time>2012-02-18T10:13:35Z</time>
      </trkpt>
      <trkpt lat="42.89734" lon="0.13419">
        <ele>2051</ele>
        <time>2012-02-18T10:13:38Z</time>
      </trkpt>
      <trkpt lat="42.89733" lon="0.1342">
        <ele>2052</ele>
        <time>2012-02-18T10:13:41Z</time>
      </trkpt>
      <trkpt lat="42.89732" lon="0.13422">
        <ele>2052</ele>
        <time>2012-02-18T10:13:44Z</time>
      </trkpt>
      <trkpt lat="42.8973" lon="0.13423">
        <ele>2052</ele>
        <time>2012-02-18T10:13:47Z</time>
      </trkpt>
      <trkpt lat="42.89729" lon="0.13425">
        <ele>2053</ele>
        <time>2012-02-18T10:13:50Z</time>
      </trkpt>
      <trkpt lat="42.89726" lon="0.13427">
        <ele>2053</ele>
        <time>2012-02-18T10:13:54Z</time>
      </trkpt>
      <trkpt lat="42.89724" lon="0.13429">
        <ele>2053</ele>
        <time>2012-02-18T10:13:57Z</time>
      </trkpt>
      <trkpt lat="42.89722" lon="0.13431">
        <ele>2054</ele>
        <time>2012-02-18T10:14:02Z</time>
      </trkpt>
      <trkpt lat="42.89719" lon="0.13431">
        <ele>2054</ele>
        <time>2012-02-18T10:14:06Z</time>
      </trkpt>
      <trkpt lat="42.89716" lon="0.13432">
        <ele>2054</ele>
        <time>2012-02-18T10:14:11Z</time>
      </trkpt>
      <trkpt lat="42.89714" lon="0.13432">
        <ele>2055</ele>
        <time>2012-02-18T10:14:15Z</time>
      </trkpt>
      <trkpt lat="42.89712" lon="0.13433">
        <ele>2055</ele>
        <time>2012-02-18T10:14:18Z</time>
      </trkpt>
      <trkpt lat="42.8971" lon="0.13432">
        <ele>2056</ele>
        <time>2012-02-18T10:14:22Z</time>
      </trkpt>
      <trkpt lat="42.89709" lon="0.13432">
        <ele>2057</ele>
        <time>2012-02-18T10:14:31Z</time>
      </trkpt>
      <trkpt lat="42.89706" lon="0.13432">
        <ele>2058</ele>
        <time>2012-02-18T10:14:35Z</time>
      </trkpt>
      <trkpt lat="42.89704" lon="0.13431">
        <ele>2058</ele>
        <time>2012-02-18T10:14:39Z</time>
      </trkpt>
      <trkpt lat="42.89701" lon="0.13431">
        <ele>2058</ele>
        <time>2012-02-18T10:14:43Z</time>
      </trkpt>
      <trkpt lat="42.897" lon="0.1343">
        <ele>2059</ele>
        <time>2012-02-18T10:14:46Z</time>
      </trkpt>
      <trkpt lat="42.89698" lon="0.1343">
        <ele>2059</ele>
        <time>2012-02-18T10:14:49Z</time>
      </trkpt>
      <trkpt lat="42.89695" lon="0.1343">
        <ele>2060</ele>
        <time>2012-02-18T10:14:54Z</time>
      </trkpt>
      <trkpt lat="42.89693" lon="0.13429">
        <ele>2060</ele>
        <time>2012-02-18T10:14:58Z</time>
      </trkpt>
      <trkpt lat="42.8969" lon="0.13428">
        <ele>2061</ele>
        <time>2012-02-18T10:15:02Z</time>
      </trkpt>
      <trkpt lat="42.89689" lon="0.13427">
        <ele>2063</ele>
        <time>2012-02-18T10:15:18Z</time>
      </trkpt>
      <trkpt lat="42.89686" lon="0.13425">
        <ele>2063</ele>
        <time>2012-02-18T10:15:22Z</time>
      </trkpt>
      <trkpt lat="42.89684" lon="0.13424">
        <ele>2064</ele>
        <time>2012-02-18T10:15:26Z</time>
      </trkpt>
      <trkpt lat="42.89681" lon="0.13423">
        <ele>2065</ele>
        <time>2012-02-18T10:15:30Z</time>
      </trkpt>
      <trkpt lat="42.89679" lon="0.13423">
        <ele>2065</ele>
        <time>2012-02-18T10:15:33Z</time>
      </trkpt>
      <trkpt lat="42.89676" lon="0.13421">
        <ele>2066</ele>
        <time>2012-02-18T10:15:38Z</time>
      </trkpt>
      <trkpt lat="42.89674" lon="0.13422">
        <ele>2066</ele>
        <time>2012-02-18T10:15:42Z</time>
      </trkpt>
      <trkpt lat="42.89671" lon="0.13422">
        <ele>2067</ele>
        <time>2012-02-18T10:15:46Z</time>
      </trkpt>
      <trkpt lat="42.89669" lon="0.13422">
        <ele>2067</ele>
        <time>2012-02-18T10:15:49Z</time>
      </trkpt>
      <trkpt lat="42.89668" lon="0.13421">
        <ele>2068</ele>
        <time>2012-02-18T10:15:52Z</time>
      </trkpt>
      <trkpt lat="42.89666" lon="0.13417">
        <ele>2068</ele>
        <time>2012-02-18T10:15:57Z</time>
      </trkpt>
      <trkpt lat="42.89663" lon="0.13416">
        <ele>2069</ele>
        <time>2012-02-18T10:16:01Z</time>
      </trkpt>
      <trkpt lat="42.8966" lon="0.13415">
        <ele>2069</ele>
        <time>2012-02-18T10:16:05Z</time>
      </trkpt>
      <trkpt lat="42.89658" lon="0.13415">
        <ele>2070</ele>
        <time>2012-02-18T10:16:17Z</time>
      </trkpt>
      <trkpt lat="42.89655" lon="0.13415">
        <ele>2070</ele>
        <time>2012-02-18T10:16:21Z</time>
      </trkpt>
      <trkpt lat="42.89653" lon="0.13414">
        <ele>2071</ele>
        <time>2012-02-18T10:16:24Z</time>
      </trkpt>
      <trkpt lat="42.89652" lon="0.13415">
        <ele>2071</ele>
        <time>2012-02-18T10:16:47Z</time>
      </trkpt>
      <trkpt lat="42.89651" lon="0.13412">
        <ele>2071</ele>
        <time>2012-02-18T10:17:06Z</time>
      </trkpt>
      <trkpt lat="42.89652" lon="0.13413">
        <ele>2072</ele>
        <time>2012-02-18T10:17:21Z</time>
      </trkpt>
      <trkpt lat="42.89653" lon="0.13415">
        <ele>2072</ele>
        <time>2012-02-18T10:17:25Z</time>
      </trkpt>
      <trkpt lat="42.89654" lon="0.13417">
        <ele>2071</ele>
        <time>2012-02-18T10:17:34Z</time>
      </trkpt>
      <trkpt lat="42.89654" lon="0.13418">
        <ele>2068</ele>
        <time>2012-02-18T10:17:38Z</time>
      </trkpt>
      <trkpt lat="42.89655" lon="0.1342">
        <ele>2064</ele>
        <time>2012-02-18T10:17:42Z</time>
      </trkpt>
      <trkpt lat="42.89655" lon="0.13421">
        <ele>2064</ele>
        <time>2012-02-18T10:18:04Z</time>
      </trkpt>
      <trkpt lat="42.89654" lon="0.13419">
        <ele>2064</ele>
        <time>2012-02-18T10:18:09Z</time>
      </trkpt>
      <trkpt lat="42.89655" lon="0.13418">
        <ele>2064</ele>
        <time>2012-02-18T10:18:13Z</time>
      </trkpt>
      <trkpt lat="42.89654" lon="0.13417">
        <ele>2064</ele>
        <time>2012-02-18T10:18:17Z</time>
      </trkpt>
      <trkpt lat="42.89653" lon="0.13416">
        <ele>2065</ele>
        <time>2012-02-18T10:18:31Z</time>
      </trkpt>
      <trkpt lat="42.89653" lon="0.13414">
        <ele>2069</ele>
        <time>2012-02-18T10:18:54Z</time>
      </trkpt>
      <trkpt lat="42.89652" lon="0.13413">
        <ele>2069</ele>
        <time>2012-02-18T10:19:08Z</time>
      </trkpt>
      <trkpt lat="42.89651" lon="0.13412">
        <ele>2069</ele>
        <time>2012-02-18T10:19:20Z</time>
      </trkpt>
      <trkpt lat="42.8965" lon="0.13414">
        <ele>2069</ele>
        <time>2012-02-18T10:19:32Z</time>
      </trkpt>
      <trkpt lat="42.89649" lon="0.13413">
        <ele>2071</ele>
        <time>2012-02-18T10:19:36Z</time>
      </trkpt>
      <trkpt lat="42.89649" lon="0.13414">
        <ele>2071</ele>
        <time>2012-02-18T10:19:45Z</time>
      </trkpt>
      <trkpt lat="42.89648" lon="0.13416">
        <ele>2068</ele>
        <time>2012-02-18T10:19:57Z</time>
      </trkpt>
      <trkpt lat="42.8965" lon="0.13416">
        <ele>2068</ele>
        <time>2012-02-18T10:20:05Z</time>
      </trkpt>
      <trkpt lat="42.89651" lon="0.13417">
        <ele>2068</ele>
        <time>2012-02-18T10:20:12Z</time>
      </trkpt>
      <trkpt lat="42.89652" lon="0.13417">
        <ele>2067</ele>
        <time>2012-02-18T10:20:20Z</time>
      </trkpt>
      <trkpt lat="42.89653" lon="0.13418">
        <ele>2063</ele>
        <time>2012-02-18T10:20:34Z</time>
      </trkpt>
      <trkpt lat="42.89653" lon="0.13416">
        <ele>2066</ele>
        <time>2012-02-18T10:20:46Z</time>
      </trkpt>
      <trkpt lat="42.89653" lon="0.13415">
        <ele>2069</ele>
        <time>2012-02-18T10:20:57Z</time>
      </trkpt>
      <trkpt lat="42.89655" lon="0.13415">
        <ele>2071</ele>
        <time>2012-02-18T10:21:07Z</time>
      </trkpt>
      <trkpt lat="42.89656" lon="0.13415">
        <ele>2075</ele>
        <time>2012-02-18T10:21:27Z</time>
      </trkpt>
      <trkpt lat="42.89657" lon="0.13415">
        <ele>2075</ele>
        <time>2012-02-18T10:21:44Z</time>
      </trkpt>
      <trkpt lat="42.89657" lon="0.13416">
        <ele>2075</ele>
        <time>2012-02-18T10:21:54Z</time>
      </trkpt>
      <trkpt lat="42.89656" lon="0.13417">
        <ele>2075</ele>
        <time>2012-02-18T10:22:08Z</time>
      </trkpt>
      <trkpt lat="42.89654" lon="0.13418">
        <ele>2075</ele>
        <time>2012-02-18T10:22:16Z</time>
      </trkpt>
      <trkpt lat="42.89653" lon="0.13419">
        <ele>2073</ele>
        <time>2012-02-18T10:22:33Z</time>
      </trkpt>
      <trkpt lat="42.89655" lon="0.13419">
        <ele>2073</ele>
        <time>2012-02-18T10:22:38Z</time>
      </trkpt>
      <trkpt lat="42.89653" lon="0.13417">
        <ele>2072</ele>
        <time>2012-02-18T10:22:44Z</time>
      </trkpt>
      <trkpt lat="42.89652" lon="0.13415">
        <ele>2072</ele>
        <time>2012-02-18T10:22:48Z</time>
      </trkpt>
      <trkpt lat="42.89652" lon="0.13417">
        <ele>2072</ele>
        <time>2012-02-18T10:23:31Z</time>
      </trkpt>
      <trkpt lat="42.8965" lon="0.13417">
        <ele>2072</ele>
        <time>2012-02-18T10:23:42Z</time>
      </trkpt>
      <trkpt lat="42.89648" lon="0.13418">
        <ele>2072</ele>
        <time>2012-02-18T10:23:45Z</time>
      </trkpt>
      <trkpt lat="42.89645" lon="0.13418">
        <ele>2072</ele>
        <time>2012-02-18T10:23:49Z</time>
      </trkpt>
      <trkpt lat="42.89641" lon="0.13417">
        <ele>2072</ele>
        <time>2012-02-18T10:23:53Z</time>
      </trkpt>
      <trkpt lat="42.89638" lon="0.13416">
        <ele>2072</ele>
        <time>2012-02-18T10:23:57Z</time>
      </trkpt>
      <trkpt lat="42.89635" lon="0.13415">
        <ele>2072</ele>
        <time>2012-02-18T10:24:01Z</time>
      </trkpt>
      <trkpt lat="42.89632" lon="0.13414">
        <ele>2072</ele>
        <time>2012-02-18T10:24:06Z</time>
      </trkpt>
      <trkpt lat="42.8963" lon="0.13412">
        <ele>2072</ele>
        <time>2012-02-18T10:24:09Z</time>
      </trkpt>
      <trkpt lat="42.89627" lon="0.13411">
        <ele>2072</ele>
        <time>2012-02-18T10:24:13Z</time>
      </trkpt>
      <trkpt lat="42.89625" lon="0.1341">
        <ele>2073</ele>
        <time>2012-02-18T10:24:18Z</time>
      </trkpt>
      <trkpt lat="42.89622" lon="0.13409">
        <ele>2074</ele>
        <time>2012-02-18T10:24:23Z</time>
      </trkpt>
      <trkpt lat="42.89619" lon="0.13408">
        <ele>2075</ele>
        <time>2012-02-18T10:24:28Z</time>
      </trkpt>
      <trkpt lat="42.89617" lon="0.13407">
        <ele>2076</ele>
        <time>2012-02-18T10:24:32Z</time>
      </trkpt>
      <trkpt lat="42.89615" lon="0.13407">
        <ele>2076</ele>
        <time>2012-02-18T10:24:35Z</time>
      </trkpt>
      <trkpt lat="42.89613" lon="0.13406">
        <ele>2077</ele>
        <time>2012-02-18T10:24:40Z</time>
      </trkpt>
      <trkpt lat="42.8961" lon="0.13405">
        <ele>2077</ele>
        <time>2012-02-18T10:24:43Z</time>
      </trkpt>
      <trkpt lat="42.89607" lon="0.13404">
        <ele>2078</ele>
        <time>2012-02-18T10:24:47Z</time>
      </trkpt>
      <trkpt lat="42.89605" lon="0.13404">
        <ele>2079</ele>
        <time>2012-02-18T10:24:52Z</time>
      </trkpt>
      <trkpt lat="42.89602" lon="0.13404">
        <ele>2079</ele>
        <time>2012-02-18T10:24:55Z</time>
      </trkpt>
      <trkpt lat="42.896" lon="0.13404">
        <ele>2080</ele>
        <time>2012-02-18T10:24:59Z</time>
      </trkpt>
      <trkpt lat="42.89597" lon="0.13403">
        <ele>2080</ele>
        <time>2012-02-18T10:25:03Z</time>
      </trkpt>
      <trkpt lat="42.89595" lon="0.13403">
        <ele>2081</ele>
        <time>2012-02-18T10:25:07Z</time>
      </trkpt>
      <trkpt lat="42.89592" lon="0.13402">
        <ele>2081</ele>
        <time>2012-02-18T10:25:11Z</time>
      </trkpt>
      <trkpt lat="42.8959" lon="0.13402">
        <ele>2082</ele>
        <time>2012-02-18T10:25:15Z</time>
      </trkpt>
      <trkpt lat="42.89587" lon="0.13402">
        <ele>2083</ele>
        <time>2012-02-18T10:25:19Z</time>
      </trkpt>
      <trkpt lat="42.89585" lon="0.13401">
        <ele>2083</ele>
        <time>2012-02-18T10:25:23Z</time>
      </trkpt>
      <trkpt lat="42.89582" lon="0.134">
        <ele>2084</ele>
        <time>2012-02-18T10:25:28Z</time>
      </trkpt>
      <trkpt lat="42.89579" lon="0.134">
        <ele>2084</ele>
        <time>2012-02-18T10:25:31Z</time>
      </trkpt>
      <trkpt lat="42.89577" lon="0.13398">
        <ele>2085</ele>
        <time>2012-02-18T10:25:35Z</time>
      </trkpt>
      <trkpt lat="42.89574" lon="0.13398">
        <ele>2085</ele>
        <time>2012-02-18T10:25:40Z</time>
      </trkpt>
      <trkpt lat="42.89572" lon="0.13397">
        <ele>2086</ele>
        <time>2012-02-18T10:25:44Z</time>
      </trkpt>
      <trkpt lat="42.8957" lon="0.13397">
        <ele>2087</ele>
        <time>2012-02-18T10:25:48Z</time>
      </trkpt>
      <trkpt lat="42.89568" lon="0.13396">
        <ele>2087</ele>
        <time>2012-02-18T10:25:52Z</time>
      </trkpt>
      <trkpt lat="42.89566" lon="0.13395">
        <ele>2088</ele>
        <time>2012-02-18T10:25:55Z</time>
      </trkpt>
      <trkpt lat="42.89563" lon="0.13394">
        <ele>2089</ele>
        <time>2012-02-18T10:26:01Z</time>
      </trkpt>
      <trkpt lat="42.89562" lon="0.13394">
        <ele>2089</ele>
        <time>2012-02-18T10:26:04Z</time>
      </trkpt>
      <trkpt lat="42.8956" lon="0.13394">
        <ele>2090</ele>
        <time>2012-02-18T10:26:07Z</time>
      </trkpt>
      <trkpt lat="42.89558" lon="0.13393">
        <ele>2091</ele>
        <time>2012-02-18T10:26:13Z</time>
      </trkpt>
      <trkpt lat="42.89556" lon="0.13392">
        <ele>2091</ele>
        <time>2012-02-18T10:26:16Z</time>
      </trkpt>
      <trkpt lat="42.89553" lon="0.13391">
        <ele>2092</ele>
        <time>2012-02-18T10:26:22Z</time>
      </trkpt>
      <trkpt lat="42.89552" lon="0.1339">
        <ele>2092</ele>
        <time>2012-02-18T10:26:25Z</time>
      </trkpt>
      <trkpt lat="42.8955" lon="0.1339">
        <ele>2092</ele>
        <time>2012-02-18T10:26:29Z</time>
      </trkpt>
      <trkpt lat="42.89547" lon="0.13389">
        <ele>2093</ele>
        <time>2012-02-18T10:26:34Z</time>
      </trkpt>
      <trkpt lat="42.89544" lon="0.13388">
        <ele>2093</ele>
        <time>2012-02-18T10:26:39Z</time>
      </trkpt>
      <trkpt lat="42.89542" lon="0.13387">
        <ele>2094</ele>
        <time>2012-02-18T10:26:44Z</time>
      </trkpt>
      <trkpt lat="42.8954" lon="0.13387">
        <ele>2094</ele>
        <time>2012-02-18T10:26:47Z</time>
      </trkpt>
      <trkpt lat="42.89538" lon="0.13386">
        <ele>2094</ele>
        <time>2012-02-18T10:26:51Z</time>
      </trkpt>
      <trkpt lat="42.89535" lon="0.13385">
        <ele>2094</ele>
        <time>2012-02-18T10:26:55Z</time>
      </trkpt>
      <trkpt lat="42.89533" lon="0.13384">
        <ele>2094</ele>
        <time>2012-02-18T10:26:59Z</time>
      </trkpt>
      <trkpt lat="42.8953" lon="0.13383">
        <ele>2094</ele>
        <time>2012-02-18T10:27:03Z</time>
      </trkpt>
      <trkpt lat="42.89528" lon="0.13383">
        <ele>2095</ele>
        <time>2012-02-18T10:27:07Z</time>
      </trkpt>
      <trkpt lat="42.89526" lon="0.13382">
        <ele>2095</ele>
        <time>2012-02-18T10:27:10Z</time>
      </trkpt>
      <trkpt lat="42.89524" lon="0.13381">
        <ele>2096</ele>
        <time>2012-02-18T10:27:13Z</time>
      </trkpt>
      <trkpt lat="42.89522" lon="0.1338">
        <ele>2097</ele>
        <time>2012-02-18T10:27:17Z</time>
      </trkpt>
      <trkpt lat="42.89519" lon="0.13379">
        <ele>2098</ele>
        <time>2012-02-18T10:27:21Z</time>
      </trkpt>
      <trkpt lat="42.89517" lon="0.13378">
        <ele>2098</ele>
        <time>2012-02-18T10:27:25Z</time>
      </trkpt>
      <trkpt lat="42.89514" lon="0.13377">
        <ele>2098</ele>
        <time>2012-02-18T10:27:29Z</time>
      </trkpt>
      <trkpt lat="42.89511" lon="0.13376">
        <ele>2098</ele>
        <time>2012-02-18T10:27:33Z</time>
      </trkpt>
      <trkpt lat="42.89508" lon="0.13375">
        <ele>2099</ele>
        <time>2012-02-18T10:27:38Z</time>
      </trkpt>
      <trkpt lat="42.89506" lon="0.13375">
        <ele>2100</ele>
        <time>2012-02-18T10:27:42Z</time>
      </trkpt>
      <trkpt lat="42.89505" lon="0.13374">
        <ele>2101</ele>
        <time>2012-02-18T10:27:45Z</time>
      </trkpt>
      <trkpt lat="42.89502" lon="0.13372">
        <ele>2102</ele>
        <time>2012-02-18T10:27:50Z</time>
      </trkpt>
      <trkpt lat="42.89499" lon="0.1337">
        <ele>2102</ele>
        <time>2012-02-18T10:27:55Z</time>
      </trkpt>
      <trkpt lat="42.89498" lon="0.13368">
        <ele>2102</ele>
        <time>2012-02-18T10:27:58Z</time>
      </trkpt>
      <trkpt lat="42.89497" lon="0.13366">
        <ele>2102</ele>
        <time>2012-02-18T10:28:01Z</time>
      </trkpt>
      <trkpt lat="42.89496" lon="0.13364">
        <ele>2103</ele>
        <time>2012-02-18T10:28:04Z</time>
      </trkpt>
      <trkpt lat="42.89495" lon="0.13362">
        <ele>2103</ele>
        <time>2012-02-18T10:28:07Z</time>
      </trkpt>
      <trkpt lat="42.89494" lon="0.13359">
        <ele>2103</ele>
        <time>2012-02-18T10:28:13Z</time>
      </trkpt>
      <trkpt lat="42.89493" lon="0.13358">
        <ele>2103</ele>
        <time>2012-02-18T10:28:16Z</time>
      </trkpt>
      <trkpt lat="42.89492" lon="0.13354">
        <ele>2104</ele>
        <time>2012-02-18T10:28:22Z</time>
      </trkpt>
      <trkpt lat="42.89492" lon="0.13352">
        <ele>2105</ele>
        <time>2012-02-18T10:28:25Z</time>
      </trkpt>
      <trkpt lat="42.89492" lon="0.13351">
        <ele>2106</ele>
        <time>2012-02-18T10:28:28Z</time>
      </trkpt>
      <trkpt lat="42.89491" lon="0.13349">
        <ele>2106</ele>
        <time>2012-02-18T10:28:32Z</time>
      </trkpt>
      <trkpt lat="42.89489" lon="0.13346">
        <ele>2107</ele>
        <time>2012-02-18T10:28:37Z</time>
      </trkpt>
      <trkpt lat="42.89487" lon="0.13342">
        <ele>2109</ele>
        <time>2012-02-18T10:28:43Z</time>
      </trkpt>
      <trkpt lat="42.89486" lon="0.13341">
        <ele>2109</ele>
        <time>2012-02-18T10:28:46Z</time>
      </trkpt>
      <trkpt lat="42.89485" lon="0.13339">
        <ele>2110</ele>
        <time>2012-02-18T10:28:50Z</time>
      </trkpt>
      <trkpt lat="42.89484" lon="0.13338">
        <ele>2111</ele>
        <time>2012-02-18T10:28:54Z</time>
      </trkpt>
      <trkpt lat="42.89482" lon="0.13337">
        <ele>2111</ele>
        <time>2012-02-18T10:29:00Z</time>
      </trkpt>
      <trkpt lat="42.8948" lon="0.13336">
        <ele>2112</ele>
        <time>2012-02-18T10:29:03Z</time>
      </trkpt>
      <trkpt lat="42.89479" lon="0.13336">
        <ele>2113</ele>
        <time>2012-02-18T10:29:06Z</time>
      </trkpt>
      <trkpt lat="42.89478" lon="0.13335">
        <ele>2113</ele>
        <time>2012-02-18T10:29:09Z</time>
      </trkpt>
      <trkpt lat="42.89476" lon="0.13335">
        <ele>2113</ele>
        <time>2012-02-18T10:29:12Z</time>
      </trkpt>
      <trkpt lat="42.89475" lon="0.13334">
        <ele>2114</ele>
        <time>2012-02-18T10:29:15Z</time>
      </trkpt>
      <trkpt lat="42.89474" lon="0.13333">
        <ele>2114</ele>
        <time>2012-02-18T10:29:18Z</time>
      </trkpt>
      <trkpt lat="42.89473" lon="0.13331">
        <ele>2114</ele>
        <time>2012-02-18T10:29:22Z</time>
      </trkpt>
      <trkpt lat="42.89472" lon="0.13329">
        <ele>2115</ele>
        <time>2012-02-18T10:29:25Z</time>
      </trkpt>
      <trkpt lat="42.89471" lon="0.13328">
        <ele>2116</ele>
        <time>2012-02-18T10:29:28Z</time>
      </trkpt>
      <trkpt lat="42.89469" lon="0.13325">
        <ele>2116</ele>
        <time>2012-02-18T10:29:35Z</time>
      </trkpt>
      <trkpt lat="42.89467" lon="0.13323">
        <ele>2117</ele>
        <time>2012-02-18T10:29:39Z</time>
      </trkpt>
      <trkpt lat="42.89466" lon="0.13322">
        <ele>2117</ele>
        <time>2012-02-18T10:29:43Z</time>
      </trkpt>
      <trkpt lat="42.89465" lon="0.1332">
        <ele>2117</ele>
        <time>2012-02-18T10:29:47Z</time>
      </trkpt>
      <trkpt lat="42.89463" lon="0.13319">
        <ele>2118</ele>
        <time>2012-02-18T10:29:51Z</time>
      </trkpt>
      <trkpt lat="42.89462" lon="0.13317">
        <ele>2119</ele>
        <time>2012-02-18T10:29:55Z</time>
      </trkpt>
      <trkpt lat="42.89461" lon="0.13316">
        <ele>2120</ele>
        <time>2012-02-18T10:29:59Z</time>
      </trkpt>
      <trkpt lat="42.89459" lon="0.13315">
        <ele>2120</ele>
        <time>2012-02-18T10:30:03Z</time>
      </trkpt>
      <trkpt lat="42.89458" lon="0.13314">
        <ele>2121</ele>
        <time>2012-02-18T10:30:06Z</time>
      </trkpt>
      <trkpt lat="42.89457" lon="0.13313">
        <ele>2121</ele>
        <time>2012-02-18T10:30:10Z</time>
      </trkpt>
      <trkpt lat="42.89455" lon="0.13311">
        <ele>2122</ele>
        <time>2012-02-18T10:30:14Z</time>
      </trkpt>
      <trkpt lat="42.89455" lon="0.13309">
        <ele>2123</ele>
        <time>2012-02-18T10:30:18Z</time>
      </trkpt>
      <trkpt lat="42.89455" lon="0.13307">
        <ele>2124</ele>
        <time>2012-02-18T10:30:23Z</time>
      </trkpt>
      <trkpt lat="42.89455" lon="0.13306">
        <ele>2124</ele>
        <time>2012-02-18T10:30:26Z</time>
      </trkpt>
      <trkpt lat="42.89456" lon="0.13304">
        <ele>2125</ele>
        <time>2012-02-18T10:30:45Z</time>
      </trkpt>
      <trkpt lat="42.89457" lon="0.13301">
        <ele>2125</ele>
        <time>2012-02-18T10:30:50Z</time>
      </trkpt>
      <trkpt lat="42.89457" lon="0.13299">
        <ele>2125</ele>
        <time>2012-02-18T10:30:53Z</time>
      </trkpt>
      <trkpt lat="42.89458" lon="0.13297">
        <ele>2126</ele>
        <time>2012-02-18T10:30:56Z</time>
      </trkpt>
      <trkpt lat="42.89458" lon="0.13295">
        <ele>2126</ele>
        <time>2012-02-18T10:30:59Z</time>
      </trkpt>
      <trkpt lat="42.89459" lon="0.13291">
        <ele>2127</ele>
        <time>2012-02-18T10:31:05Z</time>
      </trkpt>
      <trkpt lat="42.89459" lon="0.13288">
        <ele>2127</ele>
        <time>2012-02-18T10:31:09Z</time>
      </trkpt>
      <trkpt lat="42.8946" lon="0.13285">
        <ele>2127</ele>
        <time>2012-02-18T10:31:13Z</time>
      </trkpt>
      <trkpt lat="42.8946" lon="0.13282">
        <ele>2128</ele>
        <time>2012-02-18T10:31:18Z</time>
      </trkpt>
      <trkpt lat="42.8946" lon="0.1328">
        <ele>2129</ele>
        <time>2012-02-18T10:31:21Z</time>
      </trkpt>
      <trkpt lat="42.89461" lon="0.13277">
        <ele>2129</ele>
        <time>2012-02-18T10:31:24Z</time>
      </trkpt>
      <trkpt lat="42.8946" lon="0.13273">
        <ele>2130</ele>
        <time>2012-02-18T10:31:30Z</time>
      </trkpt>
      <trkpt lat="42.89458" lon="0.1327">
        <ele>2132</ele>
        <time>2012-02-18T10:31:36Z</time>
      </trkpt>
      <trkpt lat="42.89457" lon="0.13269">
        <ele>2132</ele>
        <time>2012-02-18T10:31:39Z</time>
      </trkpt>
      <trkpt lat="42.89456" lon="0.13268">
        <ele>2132</ele>
        <time>2012-02-18T10:31:42Z</time>
      </trkpt>
      <trkpt lat="42.89455" lon="0.13266">
        <ele>2133</ele>
        <time>2012-02-18T10:31:46Z</time>
      </trkpt>
      <trkpt lat="42.89454" lon="0.13264">
        <ele>2133</ele>
        <time>2012-02-18T10:31:49Z</time>
      </trkpt>
      <trkpt lat="42.89452" lon="0.13263">
        <ele>2134</ele>
        <time>2012-02-18T10:31:53Z</time>
      </trkpt>
      <trkpt lat="42.89451" lon="0.13261">
        <ele>2135</ele>
        <time>2012-02-18T10:31:56Z</time>
      </trkpt>
      <trkpt lat="42.89449" lon="0.1326">
        <ele>2135</ele>
        <time>2012-02-18T10:32:00Z</time>
      </trkpt>
      <trkpt lat="42.89448" lon="0.13258">
        <ele>2135</ele>
        <time>2012-02-18T10:32:03Z</time>
      </trkpt>
      <trkpt lat="42.89447" lon="0.13257">
        <ele>2136</ele>
        <time>2012-02-18T10:32:07Z</time>
      </trkpt>
      <trkpt lat="42.89446" lon="0.13255">
        <ele>2137</ele>
        <time>2012-02-18T10:32:10Z</time>
      </trkpt>
      <trkpt lat="42.89445" lon="0.13253">
        <ele>2137</ele>
        <time>2012-02-18T10:32:13Z</time>
      </trkpt>
      <trkpt lat="42.89444" lon="0.13252">
        <ele>2138</ele>
        <time>2012-02-18T10:32:40Z</time>
      </trkpt>
      <trkpt lat="42.89445" lon="0.1325">
        <ele>2138</ele>
        <time>2012-02-18T10:32:44Z</time>
      </trkpt>
      <trkpt lat="42.89446" lon="0.13249">
        <ele>2139</ele>
        <time>2012-02-18T10:32:50Z</time>
      </trkpt>
      <trkpt lat="42.89447" lon="0.13249">
        <ele>2141</ele>
        <time>2012-02-18T10:32:59Z</time>
      </trkpt>
      <trkpt lat="42.89448" lon="0.13247">
        <ele>2143</ele>
        <time>2012-02-18T10:33:07Z</time>
      </trkpt>
      <trkpt lat="42.89449" lon="0.13245">
        <ele>2143</ele>
        <time>2012-02-18T10:33:10Z</time>
      </trkpt>
      <trkpt lat="42.8945" lon="0.13243">
        <ele>2143</ele>
        <time>2012-02-18T10:33:14Z</time>
      </trkpt>
      <trkpt lat="42.89451" lon="0.13242">
        <ele>2143</ele>
        <time>2012-02-18T10:33:17Z</time>
      </trkpt>
      <trkpt lat="42.89452" lon="0.1324">
        <ele>2144</ele>
        <time>2012-02-18T10:33:20Z</time>
      </trkpt>
      <trkpt lat="42.89453" lon="0.13237">
        <ele>2144</ele>
        <time>2012-02-18T10:33:25Z</time>
      </trkpt>
      <trkpt lat="42.89452" lon="0.13235">
        <ele>2144</ele>
        <time>2012-02-18T10:33:28Z</time>
      </trkpt>
      <trkpt lat="42.89452" lon="0.13234">
        <ele>2145</ele>
        <time>2012-02-18T10:33:31Z</time>
      </trkpt>
      <trkpt lat="42.89451" lon="0.13233">
        <ele>2146</ele>
        <time>2012-02-18T10:33:35Z</time>
      </trkpt>
      <trkpt lat="42.89449" lon="0.13232">
        <ele>2146</ele>
        <time>2012-02-18T10:33:38Z</time>
      </trkpt>
      <trkpt lat="42.89448" lon="0.13231">
        <ele>2146</ele>
        <time>2012-02-18T10:33:41Z</time>
      </trkpt>
      <trkpt lat="42.89445" lon="0.13229">
        <ele>2148</ele>
        <time>2012-02-18T10:33:47Z</time>
      </trkpt>
      <trkpt lat="42.89444" lon="0.13229">
        <ele>2149</ele>
        <time>2012-02-18T10:33:50Z</time>
      </trkpt>
      <trkpt lat="42.89443" lon="0.13228">
        <ele>2150</ele>
        <time>2012-02-18T10:33:54Z</time>
      </trkpt>
      <trkpt lat="42.89439" lon="0.13226">
        <ele>2152</ele>
        <time>2012-02-18T10:34:00Z</time>
      </trkpt>
      <trkpt lat="42.89437" lon="0.13223">
        <ele>2152</ele>
        <time>2012-02-18T10:34:07Z</time>
      </trkpt>
      <trkpt lat="42.89436" lon="0.13222">
        <ele>2152</ele>
        <time>2012-02-18T10:34:10Z</time>
      </trkpt>
      <trkpt lat="42.89435" lon="0.13221">
        <ele>2152</ele>
        <time>2012-02-18T10:34:13Z</time>
      </trkpt>
      <trkpt lat="42.89432" lon="0.13219">
        <ele>2152</ele>
        <time>2012-02-18T10:34:20Z</time>
      </trkpt>
      <trkpt lat="42.8943" lon="0.13217">
        <ele>2153</ele>
        <time>2012-02-18T10:34:25Z</time>
      </trkpt>
      <trkpt lat="42.89427" lon="0.13217">
        <ele>2154</ele>
        <time>2012-02-18T10:34:29Z</time>
      </trkpt>
      <trkpt lat="42.89428" lon="0.13217">
        <ele>2155</ele>
        <time>2012-02-18T10:34:49Z</time>
      </trkpt>
      <trkpt lat="42.89431" lon="0.13214">
        <ele>2155</ele>
        <time>2012-02-18T10:34:55Z</time>
      </trkpt>
      <trkpt lat="42.89432" lon="0.13212">
        <ele>2155</ele>
        <time>2012-02-18T10:34:58Z</time>
      </trkpt>
      <trkpt lat="42.89433" lon="0.1321">
        <ele>2155</ele>
        <time>2012-02-18T10:35:01Z</time>
      </trkpt>
      <trkpt lat="42.89434" lon="0.13207">
        <ele>2155</ele>
        <time>2012-02-18T10:35:07Z</time>
      </trkpt>
      <trkpt lat="42.89435" lon="0.13206">
        <ele>2155</ele>
        <time>2012-02-18T10:35:10Z</time>
      </trkpt>
      <trkpt lat="42.89437" lon="0.13204">
        <ele>2155</ele>
        <time>2012-02-18T10:35:13Z</time>
      </trkpt>
      <trkpt lat="42.89439" lon="0.13202">
        <ele>2155</ele>
        <time>2012-02-18T10:35:16Z</time>
      </trkpt>
      <trkpt lat="42.8944" lon="0.13201">
        <ele>2155</ele>
        <time>2012-02-18T10:35:19Z</time>
      </trkpt>
      <trkpt lat="42.89441" lon="0.132">
        <ele>2155</ele>
        <time>2012-02-18T10:35:24Z</time>
      </trkpt>
      <trkpt lat="42.89444" lon="0.13198">
        <ele>2156</ele>
        <time>2012-02-18T10:35:31Z</time>
      </trkpt>
      <trkpt lat="42.89444" lon="0.132">
        <ele>2157</ele>
        <time>2012-02-18T10:35:35Z</time>
      </trkpt>
      <trkpt lat="42.89444" lon="0.13202">
        <ele>2157</ele>
        <time>2012-02-18T10:35:39Z</time>
      </trkpt>
      <trkpt lat="42.89445" lon="0.13201">
        <ele>2159</ele>
        <time>2012-02-18T10:35:48Z</time>
      </trkpt>
      <trkpt lat="42.89446" lon="0.132">
        <ele>2159</ele>
        <time>2012-02-18T10:35:52Z</time>
      </trkpt>
      <trkpt lat="42.89447" lon="0.13198">
        <ele>2160</ele>
        <time>2012-02-18T10:35:55Z</time>
      </trkpt>
      <trkpt lat="42.8945" lon="0.13196">
        <ele>2160</ele>
        <time>2012-02-18T10:36:00Z</time>
      </trkpt>
      <trkpt lat="42.89452" lon="0.13195">
        <ele>2161</ele>
        <time>2012-02-18T10:36:06Z</time>
      </trkpt>
      <trkpt lat="42.89451" lon="0.13196">
        <ele>2162</ele>
        <time>2012-02-18T10:36:14Z</time>
      </trkpt>
      <trkpt lat="42.8945" lon="0.13195">
        <ele>2162</ele>
        <time>2012-02-18T10:36:18Z</time>
      </trkpt>
      <trkpt lat="42.89449" lon="0.13194">
        <ele>2163</ele>
        <time>2012-02-18T10:36:21Z</time>
      </trkpt>
      <trkpt lat="42.89447" lon="0.13193">
        <ele>2163</ele>
        <time>2012-02-18T10:36:25Z</time>
      </trkpt>
      <trkpt lat="42.89446" lon="0.13192">
        <ele>2163</ele>
        <time>2012-02-18T10:36:28Z</time>
      </trkpt>
      <trkpt lat="42.89444" lon="0.13191">
        <ele>2164</ele>
        <time>2012-02-18T10:36:31Z</time>
      </trkpt>
      <trkpt lat="42.89443" lon="0.1319">
        <ele>2164</ele>
        <time>2012-02-18T10:36:34Z</time>
      </trkpt>
      <trkpt lat="42.89442" lon="0.13187">
        <ele>2165</ele>
        <time>2012-02-18T10:36:38Z</time>
      </trkpt>
      <trkpt lat="42.89442" lon="0.13186">
        <ele>2165</ele>
        <time>2012-02-18T10:36:41Z</time>
      </trkpt>
      <trkpt lat="42.8944" lon="0.13185">
        <ele>2165</ele>
        <time>2012-02-18T10:36:44Z</time>
      </trkpt>
      <trkpt lat="42.89438" lon="0.13184">
        <ele>2166</ele>
        <time>2012-02-18T10:36:52Z</time>
      </trkpt>
      <trkpt lat="42.89437" lon="0.13184">
        <ele>2169</ele>
        <time>2012-02-18T10:37:05Z</time>
      </trkpt>
      <trkpt lat="42.89435" lon="0.13183">
        <ele>2169</ele>
        <time>2012-02-18T10:37:25Z</time>
      </trkpt>
      <trkpt lat="42.89434" lon="0.13183">
        <ele>2169</ele>
        <time>2012-02-18T10:37:28Z</time>
      </trkpt>
      <trkpt lat="42.89433" lon="0.13181">
        <ele>2169</ele>
        <time>2012-02-18T10:37:31Z</time>
      </trkpt>
      <trkpt lat="42.89432" lon="0.1318">
        <ele>2169</ele>
        <time>2012-02-18T10:37:34Z</time>
      </trkpt>
      <trkpt lat="42.89431" lon="0.13179">
        <ele>2169</ele>
        <time>2012-02-18T10:37:37Z</time>
      </trkpt>
      <trkpt lat="42.89429" lon="0.13178">
        <ele>2170</ele>
        <time>2012-02-18T10:37:40Z</time>
      </trkpt>
      <trkpt lat="42.89427" lon="0.13175">
        <ele>2171</ele>
        <time>2012-02-18T10:37:46Z</time>
      </trkpt>
      <trkpt lat="42.89429" lon="0.13175">
        <ele>2172</ele>
        <time>2012-02-18T10:38:02Z</time>
      </trkpt>
      <trkpt lat="42.89431" lon="0.13173">
        <ele>2172</ele>
        <time>2012-02-18T10:38:06Z</time>
      </trkpt>
      <trkpt lat="42.89432" lon="0.13173">
        <ele>2172</ele>
        <time>2012-02-18T10:38:10Z</time>
      </trkpt>
      <trkpt lat="42.89434" lon="0.13173">
        <ele>2172</ele>
        <time>2012-02-18T10:38:13Z</time>
      </trkpt>
      <trkpt lat="42.89435" lon="0.13172">
        <ele>2172</ele>
        <time>2012-02-18T10:38:16Z</time>
      </trkpt>
      <trkpt lat="42.89437" lon="0.13171">
        <ele>2172</ele>
        <time>2012-02-18T10:38:20Z</time>
      </trkpt>
      <trkpt lat="42.89439" lon="0.13171">
        <ele>2173</ele>
        <time>2012-02-18T10:38:23Z</time>
      </trkpt>
      <trkpt lat="42.8944" lon="0.13171">
        <ele>2174</ele>
        <time>2012-02-18T10:38:26Z</time>
      </trkpt>
      <trkpt lat="42.8944" lon="0.13169">
        <ele>2174</ele>
        <time>2012-02-18T10:38:31Z</time>
      </trkpt>
      <trkpt lat="42.89438" lon="0.13168">
        <ele>2174</ele>
        <time>2012-02-18T10:38:35Z</time>
      </trkpt>
      <trkpt lat="42.89437" lon="0.13166">
        <ele>2175</ele>
        <time>2012-02-18T10:38:38Z</time>
      </trkpt>
      <trkpt lat="42.89436" lon="0.13164">
        <ele>2176</ele>
        <time>2012-02-18T10:38:41Z</time>
      </trkpt>
      <trkpt lat="42.89433" lon="0.13161">
        <ele>2177</ele>
        <time>2012-02-18T10:38:47Z</time>
      </trkpt>
      <trkpt lat="42.89432" lon="0.1316">
        <ele>2178</ele>
        <time>2012-02-18T10:38:51Z</time>
      </trkpt>
      <trkpt lat="42.89429" lon="0.13158">
        <ele>2178</ele>
        <time>2012-02-18T10:38:57Z</time>
      </trkpt>
      <trkpt lat="42.89428" lon="0.13157">
        <ele>2179</ele>
        <time>2012-02-18T10:39:00Z</time>
      </trkpt>
      <trkpt lat="42.89426" lon="0.13156">
        <ele>2179</ele>
        <time>2012-02-18T10:39:03Z</time>
      </trkpt>
      <trkpt lat="42.89424" lon="0.13154">
        <ele>2180</ele>
        <time>2012-02-18T10:39:09Z</time>
      </trkpt>
      <trkpt lat="42.89422" lon="0.13153">
        <ele>2181</ele>
        <time>2012-02-18T10:39:12Z</time>
      </trkpt>
      <trkpt lat="42.89421" lon="0.13151">
        <ele>2181</ele>
        <time>2012-02-18T10:39:15Z</time>
      </trkpt>
      <trkpt lat="42.89419" lon="0.13148">
        <ele>2182</ele>
        <time>2012-02-18T10:39:21Z</time>
      </trkpt>
      <trkpt lat="42.89418" lon="0.13146">
        <ele>2182</ele>
        <time>2012-02-18T10:39:52Z</time>
      </trkpt>
      <trkpt lat="42.89416" lon="0.13145">
        <ele>2182</ele>
        <time>2012-02-18T10:40:00Z</time>
      </trkpt>
      <trkpt lat="42.89415" lon="0.13145">
        <ele>2182</ele>
        <time>2012-02-18T10:40:03Z</time>
      </trkpt>
      <trkpt lat="42.89414" lon="0.13144">
        <ele>2182</ele>
        <time>2012-02-18T10:40:11Z</time>
      </trkpt>
      <trkpt lat="42.89413" lon="0.13144">
        <ele>2182</ele>
        <time>2012-02-18T10:40:15Z</time>
      </trkpt>
      <trkpt lat="42.89412" lon="0.13143">
        <ele>2182</ele>
        <time>2012-02-18T10:40:18Z</time>
      </trkpt>
      <trkpt lat="42.89409" lon="0.13142">
        <ele>2183</ele>
        <time>2012-02-18T10:40:24Z</time>
      </trkpt>
      <trkpt lat="42.89408" lon="0.13141">
        <ele>2183</ele>
        <time>2012-02-18T10:40:28Z</time>
      </trkpt>
      <trkpt lat="42.89407" lon="0.1314">
        <ele>2183</ele>
        <time>2012-02-18T10:40:31Z</time>
      </trkpt>
      <trkpt lat="42.89404" lon="0.13139">
        <ele>2183</ele>
        <time>2012-02-18T10:40:37Z</time>
      </trkpt>
      <trkpt lat="42.89402" lon="0.13138">
        <ele>2183</ele>
        <time>2012-02-18T10:40:40Z</time>
      </trkpt>
      <trkpt lat="42.89401" lon="0.13138">
        <ele>2184</ele>
        <time>2012-02-18T10:40:43Z</time>
      </trkpt>
      <trkpt lat="42.89399" lon="0.13138">
        <ele>2184</ele>
        <time>2012-02-18T10:40:46Z</time>
      </trkpt>
      <trkpt lat="42.89396" lon="0.13138">
        <ele>2185</ele>
        <time>2012-02-18T10:40:52Z</time>
      </trkpt>
      <trkpt lat="42.89393" lon="0.13138">
        <ele>2186</ele>
        <time>2012-02-18T10:40:57Z</time>
      </trkpt>
      <trkpt lat="42.89391" lon="0.13138">
        <ele>2188</ele>
        <time>2012-02-18T10:41:01Z</time>
      </trkpt>
      <trkpt lat="42.8939" lon="0.13137">
        <ele>2188</ele>
        <time>2012-02-18T10:41:04Z</time>
      </trkpt>
      <trkpt lat="42.89388" lon="0.13137">
        <ele>2189</ele>
        <time>2012-02-18T10:41:08Z</time>
      </trkpt>
      <trkpt lat="42.89387" lon="0.13137">
        <ele>2190</ele>
        <time>2012-02-18T10:41:12Z</time>
      </trkpt>
      <trkpt lat="42.89386" lon="0.13136">
        <ele>2190</ele>
        <time>2012-02-18T10:41:15Z</time>
      </trkpt>
      <trkpt lat="42.89383" lon="0.13136">
        <ele>2191</ele>
        <time>2012-02-18T10:41:21Z</time>
      </trkpt>
      <trkpt lat="42.89382" lon="0.13135">
        <ele>2192</ele>
        <time>2012-02-18T10:41:24Z</time>
      </trkpt>
      <trkpt lat="42.89381" lon="0.13135">
        <ele>2192</ele>
        <time>2012-02-18T10:41:27Z</time>
      </trkpt>
      <trkpt lat="42.89379" lon="0.13135">
        <ele>2193</ele>
        <time>2012-02-18T10:41:31Z</time>
      </trkpt>
      <trkpt lat="42.89376" lon="0.13135">
        <ele>2194</ele>
        <time>2012-02-18T10:41:36Z</time>
      </trkpt>
      <trkpt lat="42.89375" lon="0.13136">
        <ele>2194</ele>
        <time>2012-02-18T10:41:39Z</time>
      </trkpt>
      <trkpt lat="42.89372" lon="0.13137">
        <ele>2195</ele>
        <time>2012-02-18T10:41:43Z</time>
      </trkpt>
      <trkpt lat="42.8937" lon="0.13137">
        <ele>2196</ele>
        <time>2012-02-18T10:41:47Z</time>
      </trkpt>
      <trkpt lat="42.89367" lon="0.13137">
        <ele>2197</ele>
        <time>2012-02-18T10:41:52Z</time>
      </trkpt>
      <trkpt lat="42.89366" lon="0.13138">
        <ele>2198</ele>
        <time>2012-02-18T10:42:09Z</time>
      </trkpt>
      <trkpt lat="42.89365" lon="0.13138">
        <ele>2198</ele>
        <time>2012-02-18T10:42:27Z</time>
      </trkpt>
      <trkpt lat="42.89362" lon="0.13138">
        <ele>2198</ele>
        <time>2012-02-18T10:42:31Z</time>
      </trkpt>
      <trkpt lat="42.8936" lon="0.13137">
        <ele>2199</ele>
        <time>2012-02-18T10:42:35Z</time>
      </trkpt>
      <trkpt lat="42.89357" lon="0.13136">
        <ele>2200</ele>
        <time>2012-02-18T10:42:40Z</time>
      </trkpt>
      <trkpt lat="42.89356" lon="0.13135">
        <ele>2200</ele>
        <time>2012-02-18T10:42:43Z</time>
      </trkpt>
      <trkpt lat="42.89353" lon="0.13132">
        <ele>2201</ele>
        <time>2012-02-18T10:42:49Z</time>
      </trkpt>
      <trkpt lat="42.89351" lon="0.13131">
        <ele>2201</ele>
        <time>2012-02-18T10:42:52Z</time>
      </trkpt>
      <trkpt lat="42.89349" lon="0.13129">
        <ele>2202</ele>
        <time>2012-02-18T10:42:57Z</time>
      </trkpt>
      <trkpt lat="42.89347" lon="0.13126">
        <ele>2202</ele>
        <time>2012-02-18T10:43:02Z</time>
      </trkpt>
      <trkpt lat="42.89345" lon="0.13125">
        <ele>2203</ele>
        <time>2012-02-18T10:43:05Z</time>
      </trkpt>
      <trkpt lat="42.89343" lon="0.13122">
        <ele>2203</ele>
        <time>2012-02-18T10:43:11Z</time>
      </trkpt>
      <trkpt lat="42.89341" lon="0.1312">
        <ele>2203</ele>
        <time>2012-02-18T10:43:14Z</time>
      </trkpt>
      <trkpt lat="42.89339" lon="0.13119">
        <ele>2204</ele>
        <time>2012-02-18T10:43:25Z</time>
      </trkpt>
      <trkpt lat="42.89338" lon="0.13117">
        <ele>2204</ele>
        <time>2012-02-18T10:43:28Z</time>
      </trkpt>
      <trkpt lat="42.89336" lon="0.13116">
        <ele>2204</ele>
        <time>2012-02-18T10:43:31Z</time>
      </trkpt>
      <trkpt lat="42.89333" lon="0.13114">
        <ele>2204</ele>
        <time>2012-02-18T10:43:37Z</time>
      </trkpt>
      <trkpt lat="42.89332" lon="0.13112">
        <ele>2204</ele>
        <time>2012-02-18T10:43:40Z</time>
      </trkpt>
      <trkpt lat="42.89329" lon="0.13111">
        <ele>2205</ele>
        <time>2012-02-18T10:43:45Z</time>
      </trkpt>
      <trkpt lat="42.89327" lon="0.13109">
        <ele>2205</ele>
        <time>2012-02-18T10:43:49Z</time>
      </trkpt>
      <trkpt lat="42.89324" lon="0.13108">
        <ele>2205</ele>
        <time>2012-02-18T10:43:53Z</time>
      </trkpt>
      <trkpt lat="42.89322" lon="0.13106">
        <ele>2206</ele>
        <time>2012-02-18T10:43:57Z</time>
      </trkpt>
      <trkpt lat="42.89319" lon="0.13104">
        <ele>2206</ele>
        <time>2012-02-18T10:44:01Z</time>
      </trkpt>
      <trkpt lat="42.89317" lon="0.13102">
        <ele>2206</ele>
        <time>2012-02-18T10:44:05Z</time>
      </trkpt>
      <trkpt lat="42.89314" lon="0.13099">
        <ele>2206</ele>
        <time>2012-02-18T10:44:09Z</time>
      </trkpt>
      <trkpt lat="42.89312" lon="0.13097">
        <ele>2206</ele>
        <time>2012-02-18T10:44:13Z</time>
      </trkpt>
      <trkpt lat="42.8931" lon="0.13095">
        <ele>2206</ele>
        <time>2012-02-18T10:44:16Z</time>
      </trkpt>
      <trkpt lat="42.89308" lon="0.13094">
        <ele>2206</ele>
        <time>2012-02-18T10:44:20Z</time>
      </trkpt>
      <trkpt lat="42.89305" lon="0.13092">
        <ele>2207</ele>
        <time>2012-02-18T10:44:24Z</time>
      </trkpt>
      <trkpt lat="42.89303" lon="0.13091">
        <ele>2207</ele>
        <time>2012-02-18T10:44:29Z</time>
      </trkpt>
      <trkpt lat="42.893" lon="0.1309">
        <ele>2208</ele>
        <time>2012-02-18T10:44:33Z</time>
      </trkpt>
      <trkpt lat="42.89299" lon="0.13089">
        <ele>2208</ele>
        <time>2012-02-18T10:44:36Z</time>
      </trkpt>
      <trkpt lat="42.89296" lon="0.13087">
        <ele>2208</ele>
        <time>2012-02-18T10:44:40Z</time>
      </trkpt>
      <trkpt lat="42.89294" lon="0.13086">
        <ele>2209</ele>
        <time>2012-02-18T10:44:45Z</time>
      </trkpt>
      <trkpt lat="42.89291" lon="0.13085">
        <ele>2209</ele>
        <time>2012-02-18T10:44:49Z</time>
      </trkpt>
      <trkpt lat="42.89289" lon="0.13084">
        <ele>2210</ele>
        <time>2012-02-18T10:44:53Z</time>
      </trkpt>
      <trkpt lat="42.89286" lon="0.13084">
        <ele>2210</ele>
        <time>2012-02-18T10:44:57Z</time>
      </trkpt>
      <trkpt lat="42.89284" lon="0.13084">
        <ele>2211</ele>
        <time>2012-02-18T10:45:01Z</time>
      </trkpt>
      <trkpt lat="42.89283" lon="0.13085">
        <ele>2211</ele>
        <time>2012-02-18T10:45:04Z</time>
      </trkpt>
      <trkpt lat="42.8928" lon="0.13085">
        <ele>2212</ele>
        <time>2012-02-18T10:45:09Z</time>
      </trkpt>
      <trkpt lat="42.89277" lon="0.13086">
        <ele>2212</ele>
        <time>2012-02-18T10:45:14Z</time>
      </trkpt>
      <trkpt lat="42.89275" lon="0.13086">
        <ele>2212</ele>
        <time>2012-02-18T10:45:18Z</time>
      </trkpt>
      <trkpt lat="42.89273" lon="0.13085">
        <ele>2213</ele>
        <time>2012-02-18T10:45:22Z</time>
      </trkpt>
      <trkpt lat="42.8927" lon="0.13085">
        <ele>2213</ele>
        <time>2012-02-18T10:45:26Z</time>
      </trkpt>
      <trkpt lat="42.89269" lon="0.13084">
        <ele>2214</ele>
        <time>2012-02-18T10:45:29Z</time>
      </trkpt>
      <trkpt lat="42.89266" lon="0.13084">
        <ele>2214</ele>
        <time>2012-02-18T10:45:33Z</time>
      </trkpt>
      <trkpt lat="42.89264" lon="0.13082">
        <ele>2214</ele>
        <time>2012-02-18T10:45:37Z</time>
      </trkpt>
      <trkpt lat="42.89262" lon="0.1308">
        <ele>2215</ele>
        <time>2012-02-18T10:45:42Z</time>
      </trkpt>
      <trkpt lat="42.8926" lon="0.13079">
        <ele>2216</ele>
        <time>2012-02-18T10:45:45Z</time>
      </trkpt>
      <trkpt lat="42.89258" lon="0.13076">
        <ele>2216</ele>
        <time>2012-02-18T10:45:50Z</time>
      </trkpt>
      <trkpt lat="42.89256" lon="0.13072">
        <ele>2216</ele>
        <time>2012-02-18T10:45:55Z</time>
      </trkpt>
      <trkpt lat="42.89254" lon="0.13069">
        <ele>2217</ele>
        <time>2012-02-18T10:46:00Z</time>
      </trkpt>
      <trkpt lat="42.89251" lon="0.13067">
        <ele>2218</ele>
        <time>2012-02-18T10:46:05Z</time>
      </trkpt>
      <trkpt lat="42.89249" lon="0.13066">
        <ele>2218</ele>
        <time>2012-02-18T10:46:09Z</time>
      </trkpt>
      <trkpt lat="42.89246" lon="0.13065">
        <ele>2219</ele>
        <time>2012-02-18T10:46:13Z</time>
      </trkpt>
      <trkpt lat="42.89244" lon="0.13063">
        <ele>2219</ele>
        <time>2012-02-18T10:46:17Z</time>
      </trkpt>
      <trkpt lat="42.89241" lon="0.13062">
        <ele>2220</ele>
        <time>2012-02-18T10:46:22Z</time>
      </trkpt>
      <trkpt lat="42.89239" lon="0.13061">
        <ele>2221</ele>
        <time>2012-02-18T10:46:26Z</time>
      </trkpt>
      <trkpt lat="42.89236" lon="0.13061">
        <ele>2221</ele>
        <time>2012-02-18T10:46:31Z</time>
      </trkpt>
      <trkpt lat="42.89233" lon="0.13062">
        <ele>2222</ele>
        <time>2012-02-18T10:46:36Z</time>
      </trkpt>
      <trkpt lat="42.89232" lon="0.13062">
        <ele>2222</ele>
        <time>2012-02-18T10:46:39Z</time>
      </trkpt>
      <trkpt lat="42.89229" lon="0.13063">
        <ele>2222</ele>
        <time>2012-02-18T10:46:43Z</time>
      </trkpt>
      <trkpt lat="42.89227" lon="0.13064">
        <ele>2223</ele>
        <time>2012-02-18T10:46:50Z</time>
      </trkpt>
      <trkpt lat="42.89225" lon="0.13066">
        <ele>2223</ele>
        <time>2012-02-18T10:46:54Z</time>
      </trkpt>
      <trkpt lat="42.89222" lon="0.13067">
        <ele>2223</ele>
        <time>2012-02-18T10:46:59Z</time>
      </trkpt>
      <trkpt lat="42.89219" lon="0.13068">
        <ele>2224</ele>
        <time>2012-02-18T10:47:03Z</time>
      </trkpt>
      <trkpt lat="42.89217" lon="0.13069">
        <ele>2224</ele>
        <time>2012-02-18T10:47:07Z</time>
      </trkpt>
      <trkpt lat="42.89214" lon="0.1307">
        <ele>2224</ele>
        <time>2012-02-18T10:47:12Z</time>
      </trkpt>
      <trkpt lat="42.89213" lon="0.13071">
        <ele>2224</ele>
        <time>2012-02-18T10:47:15Z</time>
      </trkpt>
      <trkpt lat="42.89211" lon="0.13072">
        <ele>2224</ele>
        <time>2012-02-18T10:47:18Z</time>
      </trkpt>
      <trkpt lat="42.89208" lon="0.13073">
        <ele>2225</ele>
        <time>2012-02-18T10:47:23Z</time>
      </trkpt>
      <trkpt lat="42.89207" lon="0.13074">
        <ele>2225</ele>
        <time>2012-02-18T10:47:26Z</time>
      </trkpt>
      <trkpt lat="42.89204" lon="0.13074">
        <ele>2226</ele>
        <time>2012-02-18T10:47:30Z</time>
      </trkpt>
      <trkpt lat="42.89202" lon="0.13075">
        <ele>2227</ele>
        <time>2012-02-18T10:47:35Z</time>
      </trkpt>
      <trkpt lat="42.89199" lon="0.13076">
        <ele>2227</ele>
        <time>2012-02-18T10:47:39Z</time>
      </trkpt>
      <trkpt lat="42.89197" lon="0.13076">
        <ele>2227</ele>
        <time>2012-02-18T10:47:43Z</time>
      </trkpt>
      <trkpt lat="42.89194" lon="0.13076">
        <ele>2227</ele>
        <time>2012-02-18T10:47:47Z</time>
      </trkpt>
      <trkpt lat="42.89192" lon="0.13077">
        <ele>2228</ele>
        <time>2012-02-18T10:47:51Z</time>
      </trkpt>
      <trkpt lat="42.8919" lon="0.13077">
        <ele>2228</ele>
        <time>2012-02-18T10:47:56Z</time>
      </trkpt>
      <trkpt lat="42.89187" lon="0.13078">
        <ele>2228</ele>
        <time>2012-02-18T10:48:00Z</time>
      </trkpt>
      <trkpt lat="42.89184" lon="0.13079">
        <ele>2229</ele>
        <time>2012-02-18T10:48:05Z</time>
      </trkpt>
      <trkpt lat="42.89181" lon="0.13079">
        <ele>2229</ele>
        <time>2012-02-18T10:48:10Z</time>
      </trkpt>
      <trkpt lat="42.89179" lon="0.1308">
        <ele>2230</ele>
        <time>2012-02-18T10:48:14Z</time>
      </trkpt>
      <trkpt lat="42.89176" lon="0.13081">
        <ele>2230</ele>
        <time>2012-02-18T10:48:18Z</time>
      </trkpt>
      <trkpt lat="42.89173" lon="0.13082">
        <ele>2230</ele>
        <time>2012-02-18T10:48:23Z</time>
      </trkpt>
      <trkpt lat="42.89171" lon="0.13084">
        <ele>2231</ele>
        <time>2012-02-18T10:48:27Z</time>
      </trkpt>
      <trkpt lat="42.89169" lon="0.13085">
        <ele>2231</ele>
        <time>2012-02-18T10:48:31Z</time>
      </trkpt>
      <trkpt lat="42.89167" lon="0.13086">
        <ele>2232</ele>
        <time>2012-02-18T10:48:34Z</time>
      </trkpt>
      <trkpt lat="42.89165" lon="0.13087">
        <ele>2232</ele>
        <time>2012-02-18T10:48:37Z</time>
      </trkpt>
      <trkpt lat="42.89163" lon="0.13089">
        <ele>2233</ele>
        <time>2012-02-18T10:48:42Z</time>
      </trkpt>
      <trkpt lat="42.8916" lon="0.13089">
        <ele>2234</ele>
        <time>2012-02-18T10:48:46Z</time>
      </trkpt>
      <trkpt lat="42.89158" lon="0.1309">
        <ele>2235</ele>
        <time>2012-02-18T10:48:49Z</time>
      </trkpt>
      <trkpt lat="42.89156" lon="0.13092">
        <ele>2236</ele>
        <time>2012-02-18T10:48:54Z</time>
      </trkpt>
      <trkpt lat="42.89154" lon="0.13093">
        <ele>2237</ele>
        <time>2012-02-18T10:48:57Z</time>
      </trkpt>
      <trkpt lat="42.89153" lon="0.13094">
        <ele>2237</ele>
        <time>2012-02-18T10:49:00Z</time>
      </trkpt>
      <trkpt lat="42.8915" lon="0.13096">
        <ele>2238</ele>
        <time>2012-02-18T10:49:05Z</time>
      </trkpt>
      <trkpt lat="42.89149" lon="0.13097">
        <ele>2239</ele>
        <time>2012-02-18T10:49:08Z</time>
      </trkpt>
      <trkpt lat="42.89146" lon="0.13099">
        <ele>2239</ele>
        <time>2012-02-18T10:49:13Z</time>
      </trkpt>
      <trkpt lat="42.89143" lon="0.13102">
        <ele>2239</ele>
        <time>2012-02-18T10:49:19Z</time>
      </trkpt>
      <trkpt lat="42.89141" lon="0.13104">
        <ele>2240</ele>
        <time>2012-02-18T10:49:25Z</time>
      </trkpt>
      <trkpt lat="42.89139" lon="0.13106">
        <ele>2240</ele>
        <time>2012-02-18T10:49:30Z</time>
      </trkpt>
      <trkpt lat="42.89138" lon="0.13107">
        <ele>2240</ele>
        <time>2012-02-18T10:49:33Z</time>
      </trkpt>
      <trkpt lat="42.89136" lon="0.13109">
        <ele>2240</ele>
        <time>2012-02-18T10:49:36Z</time>
      </trkpt>
      <trkpt lat="42.89134" lon="0.13112">
        <ele>2242</ele>
        <time>2012-02-18T10:49:43Z</time>
      </trkpt>
      <trkpt lat="42.89132" lon="0.13113">
        <ele>2242</ele>
        <time>2012-02-18T10:49:46Z</time>
      </trkpt>
      <trkpt lat="42.89131" lon="0.13115">
        <ele>2243</ele>
        <time>2012-02-18T10:49:50Z</time>
      </trkpt>
      <trkpt lat="42.8913" lon="0.13115">
        <ele>2244</ele>
        <time>2012-02-18T10:49:53Z</time>
      </trkpt>
      <trkpt lat="42.89128" lon="0.13116">
        <ele>2244</ele>
        <time>2012-02-18T10:50:08Z</time>
      </trkpt>
      <trkpt lat="42.89129" lon="0.13116">
        <ele>2246</ele>
        <time>2012-02-18T10:50:39Z</time>
      </trkpt>
      <trkpt lat="42.89127" lon="0.13114">
        <ele>2245</ele>
        <time>2012-02-18T10:50:52Z</time>
      </trkpt>
      <trkpt lat="42.89126" lon="0.13112">
        <ele>2244</ele>
        <time>2012-02-18T10:50:59Z</time>
      </trkpt>
      <trkpt lat="42.89126" lon="0.1311">
        <ele>2243</ele>
        <time>2012-02-18T10:51:02Z</time>
      </trkpt>
      <trkpt lat="42.89126" lon="0.13112">
        <ele>2242</ele>
        <time>2012-02-18T10:51:11Z</time>
      </trkpt>
      <trkpt lat="42.89127" lon="0.13114">
        <ele>2242</ele>
        <time>2012-02-18T10:51:15Z</time>
      </trkpt>
      <trkpt lat="42.89128" lon="0.13115">
        <ele>2242</ele>
        <time>2012-02-18T10:51:23Z</time>
      </trkpt>
      <trkpt lat="42.89129" lon="0.13116">
        <ele>2242</ele>
        <time>2012-02-18T10:51:28Z</time>
      </trkpt>
      <trkpt lat="42.89128" lon="0.13115">
        <ele>2242</ele>
        <time>2012-02-18T10:52:08Z</time>
      </trkpt>
      <trkpt lat="42.89127" lon="0.13114">
        <ele>2242</ele>
        <time>2012-02-18T10:52:29Z</time>
      </trkpt>
      <trkpt lat="42.89127" lon="0.13112">
        <ele>2242</ele>
        <time>2012-02-18T10:52:37Z</time>
      </trkpt>
      <trkpt lat="42.89127" lon="0.13114">
        <ele>2242</ele>
        <time>2012-02-18T10:52:46Z</time>
      </trkpt>
      <trkpt lat="42.89127" lon="0.13115">
        <ele>2242</ele>
        <time>2012-02-18T10:52:52Z</time>
      </trkpt>
      <trkpt lat="42.89128" lon="0.13117">
        <ele>2242</ele>
        <time>2012-02-18T10:53:04Z</time>
      </trkpt>
      <trkpt lat="42.89127" lon="0.13115">
        <ele>2242</ele>
        <time>2012-02-18T10:53:17Z</time>
      </trkpt>
      <trkpt lat="42.89127" lon="0.13114">
        <ele>2242</ele>
        <time>2012-02-18T10:53:21Z</time>
      </trkpt>
      <trkpt lat="42.89126" lon="0.13112">
        <ele>2242</ele>
        <time>2012-02-18T10:53:28Z</time>
      </trkpt>
      <trkpt lat="42.89127" lon="0.13112">
        <ele>2244</ele>
        <time>2012-02-18T10:53:43Z</time>
      </trkpt>
      <trkpt lat="42.89127" lon="0.13113">
        <ele>2244</ele>
        <time>2012-02-18T10:53:51Z</time>
      </trkpt>
      <trkpt lat="42.89127" lon="0.13115">
        <ele>2244</ele>
        <time>2012-02-18T10:53:59Z</time>
      </trkpt>
      <trkpt lat="42.89126" lon="0.13115">
        <ele>2244</ele>
        <time>2012-02-18T10:56:50Z</time>
      </trkpt>
      <trkpt lat="42.89125" lon="0.13114">
        <ele>2244</ele>
        <time>2012-02-18T10:56:54Z</time>
      </trkpt>
      <trkpt lat="42.89124" lon="0.13113">
        <ele>2244</ele>
        <time>2012-02-18T10:56:58Z</time>
      </trkpt>
      <trkpt lat="42.89124" lon="0.13109">
        <ele>2244</ele>
        <time>2012-02-18T10:57:03Z</time>
      </trkpt>
      <trkpt lat="42.89124" lon="0.13106">
        <ele>2245</ele>
        <time>2012-02-18T10:57:09Z</time>
      </trkpt>
      <trkpt lat="42.89125" lon="0.13104">
        <ele>2245</ele>
        <time>2012-02-18T10:57:12Z</time>
      </trkpt>
      <trkpt lat="42.89125" lon="0.13101">
        <ele>2246</ele>
        <time>2012-02-18T10:57:17Z</time>
      </trkpt>
      <trkpt lat="42.89125" lon="0.13099">
        <ele>2247</ele>
        <time>2012-02-18T10:57:20Z</time>
      </trkpt>
      <trkpt lat="42.89126" lon="0.13097">
        <ele>2247</ele>
        <time>2012-02-18T10:57:23Z</time>
      </trkpt>
      <trkpt lat="42.89126" lon="0.13094">
        <ele>2249</ele>
        <time>2012-02-18T10:57:29Z</time>
      </trkpt>
      <trkpt lat="42.89126" lon="0.1309">
        <ele>2250</ele>
        <time>2012-02-18T10:57:35Z</time>
      </trkpt>
      <trkpt lat="42.89126" lon="0.13088">
        <ele>2250</ele>
        <time>2012-02-18T10:57:38Z</time>
      </trkpt>
      <trkpt lat="42.89126" lon="0.13087">
        <ele>2251</ele>
        <time>2012-02-18T10:57:41Z</time>
      </trkpt>
      <trkpt lat="42.89127" lon="0.13085">
        <ele>2251</ele>
        <time>2012-02-18T10:57:44Z</time>
      </trkpt>
      <trkpt lat="42.89128" lon="0.13084">
        <ele>2251</ele>
        <time>2012-02-18T10:57:48Z</time>
      </trkpt>
      <trkpt lat="42.89129" lon="0.13082">
        <ele>2252</ele>
        <time>2012-02-18T10:57:52Z</time>
      </trkpt>
      <trkpt lat="42.8913" lon="0.13082">
        <ele>2252</ele>
        <time>2012-02-18T10:57:57Z</time>
      </trkpt>
      <trkpt lat="42.8913" lon="0.1308">
        <ele>2253</ele>
        <time>2012-02-18T10:58:03Z</time>
      </trkpt>
      <trkpt lat="42.89129" lon="0.1308">
        <ele>2253</ele>
        <time>2012-02-18T10:58:11Z</time>
      </trkpt>
      <trkpt lat="42.89128" lon="0.13079">
        <ele>2253</ele>
        <time>2012-02-18T10:58:14Z</time>
      </trkpt>
      <trkpt lat="42.89125" lon="0.13078">
        <ele>2253</ele>
        <time>2012-02-18T10:58:20Z</time>
      </trkpt>
      <trkpt lat="42.89123" lon="0.13078">
        <ele>2254</ele>
        <time>2012-02-18T10:58:26Z</time>
      </trkpt>
      <trkpt lat="42.89122" lon="0.13078">
        <ele>2254</ele>
        <time>2012-02-18T10:58:29Z</time>
      </trkpt>
      <trkpt lat="42.89121" lon="0.13078">
        <ele>2254</ele>
        <time>2012-02-18T10:58:32Z</time>
      </trkpt>
      <trkpt lat="42.89119" lon="0.13078">
        <ele>2254</ele>
        <time>2012-02-18T10:58:35Z</time>
      </trkpt>
      <trkpt lat="42.89118" lon="0.13079">
        <ele>2254</ele>
        <time>2012-02-18T10:58:45Z</time>
      </trkpt>
      <trkpt lat="42.89117" lon="0.13079">
        <ele>2254</ele>
        <time>2012-02-18T10:58:48Z</time>
      </trkpt>
      <trkpt lat="42.89115" lon="0.1308">
        <ele>2254</ele>
        <time>2012-02-18T10:58:51Z</time>
      </trkpt>
      <trkpt lat="42.89115" lon="0.13078">
        <ele>2255</ele>
        <time>2012-02-18T10:58:59Z</time>
      </trkpt>
      <trkpt lat="42.89116" lon="0.13074">
        <ele>2255</ele>
        <time>2012-02-18T10:59:03Z</time>
      </trkpt>
      <trkpt lat="42.89115" lon="0.13073">
        <ele>2256</ele>
        <time>2012-02-18T10:59:07Z</time>
      </trkpt>
      <trkpt lat="42.89116" lon="0.13072">
        <ele>2257</ele>
        <time>2012-02-18T10:59:10Z</time>
      </trkpt>
      <trkpt lat="42.89117" lon="0.13071">
        <ele>2258</ele>
        <time>2012-02-18T10:59:21Z</time>
      </trkpt>
      <trkpt lat="42.89118" lon="0.13067">
        <ele>2260</ele>
        <time>2012-02-18T10:59:26Z</time>
      </trkpt>
      <trkpt lat="42.89117" lon="0.13065">
        <ele>2261</ele>
        <time>2012-02-18T10:59:29Z</time>
      </trkpt>
      <trkpt lat="42.89118" lon="0.13062">
        <ele>2261</ele>
        <time>2012-02-18T10:59:35Z</time>
      </trkpt>
      <trkpt lat="42.89119" lon="0.1306">
        <ele>2261</ele>
        <time>2012-02-18T10:59:38Z</time>
      </trkpt>
      <trkpt lat="42.89119" lon="0.13058">
        <ele>2262</ele>
        <time>2012-02-18T10:59:41Z</time>
      </trkpt>
      <trkpt lat="42.89119" lon="0.13057">
        <ele>2262</ele>
        <time>2012-02-18T10:59:44Z</time>
      </trkpt>
      <trkpt lat="42.8912" lon="0.13055">
        <ele>2262</ele>
        <time>2012-02-18T10:59:47Z</time>
      </trkpt>
      <trkpt lat="42.89122" lon="0.13051">
        <ele>2263</ele>
        <time>2012-02-18T10:59:54Z</time>
      </trkpt>
      <trkpt lat="42.89123" lon="0.1305">
        <ele>2264</ele>
        <time>2012-02-18T10:59:57Z</time>
      </trkpt>
      <trkpt lat="42.89126" lon="0.13048">
        <ele>2265</ele>
        <time>2012-02-18T11:00:02Z</time>
      </trkpt>
      <trkpt lat="42.89127" lon="0.13047">
        <ele>2266</ele>
        <time>2012-02-18T11:00:05Z</time>
      </trkpt>
      <trkpt lat="42.89129" lon="0.13044">
        <ele>2268</ele>
        <time>2012-02-18T11:00:12Z</time>
      </trkpt>
      <trkpt lat="42.89128" lon="0.13043">
        <ele>2268</ele>
        <time>2012-02-18T11:00:16Z</time>
      </trkpt>
      <trkpt lat="42.89127" lon="0.13043">
        <ele>2268</ele>
        <time>2012-02-18T11:00:20Z</time>
      </trkpt>
      <trkpt lat="42.89125" lon="0.13042">
        <ele>2268</ele>
        <time>2012-02-18T11:00:23Z</time>
      </trkpt>
      <trkpt lat="42.89122" lon="0.13039">
        <ele>2269</ele>
        <time>2012-02-18T11:00:29Z</time>
      </trkpt>
      <trkpt lat="42.89121" lon="0.13038">
        <ele>2269</ele>
        <time>2012-02-18T11:00:32Z</time>
      </trkpt>
      <trkpt lat="42.89119" lon="0.13037">
        <ele>2270</ele>
        <time>2012-02-18T11:00:35Z</time>
      </trkpt>
      <trkpt lat="42.89118" lon="0.13036">
        <ele>2270</ele>
        <time>2012-02-18T11:00:38Z</time>
      </trkpt>
      <trkpt lat="42.89117" lon="0.13035">
        <ele>2270</ele>
        <time>2012-02-18T11:00:41Z</time>
      </trkpt>
      <trkpt lat="42.89114" lon="0.13034">
        <ele>2271</ele>
        <time>2012-02-18T11:00:47Z</time>
      </trkpt>
      <trkpt lat="42.89111" lon="0.13033">
        <ele>2273</ele>
        <time>2012-02-18T11:00:53Z</time>
      </trkpt>
      <trkpt lat="42.8911" lon="0.13033">
        <ele>2274</ele>
        <time>2012-02-18T11:00:56Z</time>
      </trkpt>
      <trkpt lat="42.89108" lon="0.13032">
        <ele>2275</ele>
        <time>2012-02-18T11:01:02Z</time>
      </trkpt>
      <trkpt lat="42.89107" lon="0.13032">
        <ele>2275</ele>
        <time>2012-02-18T11:01:05Z</time>
      </trkpt>
      <trkpt lat="42.89104" lon="0.13032">
        <ele>2276</ele>
        <time>2012-02-18T11:01:11Z</time>
      </trkpt>
      <trkpt lat="42.89101" lon="0.13033">
        <ele>2277</ele>
        <time>2012-02-18T11:01:43Z</time>
      </trkpt>
      <trkpt lat="42.89099" lon="0.13034">
        <ele>2278</ele>
        <time>2012-02-18T11:01:49Z</time>
      </trkpt>
      <trkpt lat="42.89096" lon="0.13033">
        <ele>2280</ele>
        <time>2012-02-18T11:01:56Z</time>
      </trkpt>
      <trkpt lat="42.89095" lon="0.13031">
        <ele>2281</ele>
        <time>2012-02-18T11:02:00Z</time>
      </trkpt>
      <trkpt lat="42.89094" lon="0.13029">
        <ele>2281</ele>
        <time>2012-02-18T11:02:04Z</time>
      </trkpt>
      <trkpt lat="42.89093" lon="0.13028">
        <ele>2281</ele>
        <time>2012-02-18T11:02:07Z</time>
      </trkpt>
      <trkpt lat="42.8909" lon="0.13024">
        <ele>2282</ele>
        <time>2012-02-18T11:02:13Z</time>
      </trkpt>
      <trkpt lat="42.89089" lon="0.13022">
        <ele>2283</ele>
        <time>2012-02-18T11:02:16Z</time>
      </trkpt>
      <trkpt lat="42.89086" lon="0.13019">
        <ele>2284</ele>
        <time>2012-02-18T11:02:22Z</time>
      </trkpt>
      <trkpt lat="42.89084" lon="0.13017">
        <ele>2285</ele>
        <time>2012-02-18T11:02:26Z</time>
      </trkpt>
      <trkpt lat="42.89081" lon="0.13015">
        <ele>2286</ele>
        <time>2012-02-18T11:02:30Z</time>
      </trkpt>
      <trkpt lat="42.8908" lon="0.13014">
        <ele>2286</ele>
        <time>2012-02-18T11:02:33Z</time>
      </trkpt>
      <trkpt lat="42.89077" lon="0.13012">
        <ele>2287</ele>
        <time>2012-02-18T11:02:39Z</time>
      </trkpt>
      <trkpt lat="42.89074" lon="0.1301">
        <ele>2288</ele>
        <time>2012-02-18T11:02:45Z</time>
      </trkpt>
      <trkpt lat="42.89072" lon="0.1301">
        <ele>2289</ele>
        <time>2012-02-18T11:02:48Z</time>
      </trkpt>
      <trkpt lat="42.89071" lon="0.13009">
        <ele>2289</ele>
        <time>2012-02-18T11:02:51Z</time>
      </trkpt>
      <trkpt lat="42.89069" lon="0.13009">
        <ele>2290</ele>
        <time>2012-02-18T11:02:54Z</time>
      </trkpt>
      <trkpt lat="42.89066" lon="0.13008">
        <ele>2290</ele>
        <time>2012-02-18T11:02:59Z</time>
      </trkpt>
      <trkpt lat="42.89064" lon="0.13008">
        <ele>2290</ele>
        <time>2012-02-18T11:03:04Z</time>
      </trkpt>
      <trkpt lat="42.89061" lon="0.13007">
        <ele>2290</ele>
        <time>2012-02-18T11:03:09Z</time>
      </trkpt>
      <trkpt lat="42.8906" lon="0.13007">
        <ele>2290</ele>
        <time>2012-02-18T11:03:12Z</time>
      </trkpt>
      <trkpt lat="42.89057" lon="0.13007">
        <ele>2291</ele>
        <time>2012-02-18T11:03:18Z</time>
      </trkpt>
      <trkpt lat="42.89056" lon="0.13007">
        <ele>2292</ele>
        <time>2012-02-18T11:03:21Z</time>
      </trkpt>
      <trkpt lat="42.89054" lon="0.13007">
        <ele>2292</ele>
        <time>2012-02-18T11:03:24Z</time>
      </trkpt>
      <trkpt lat="42.89053" lon="0.13008">
        <ele>2293</ele>
        <time>2012-02-18T11:03:58Z</time>
      </trkpt>
      <trkpt lat="42.8905" lon="0.13009">
        <ele>2293</ele>
        <time>2012-02-18T11:04:04Z</time>
      </trkpt>
      <trkpt lat="42.89047" lon="0.1301">
        <ele>2294</ele>
        <time>2012-02-18T11:04:10Z</time>
      </trkpt>
      <trkpt lat="42.89046" lon="0.1301">
        <ele>2295</ele>
        <time>2012-02-18T11:04:13Z</time>
      </trkpt>
      <trkpt lat="42.89045" lon="0.13009">
        <ele>2295</ele>
        <time>2012-02-18T11:04:16Z</time>
      </trkpt>
      <trkpt lat="42.89043" lon="0.13007">
        <ele>2296</ele>
        <time>2012-02-18T11:04:19Z</time>
      </trkpt>
      <trkpt lat="42.89042" lon="0.13007">
        <ele>2296</ele>
        <time>2012-02-18T11:04:22Z</time>
      </trkpt>
      <trkpt lat="42.89041" lon="0.13006">
        <ele>2297</ele>
        <time>2012-02-18T11:04:25Z</time>
      </trkpt>
      <trkpt lat="42.89039" lon="0.13005">
        <ele>2297</ele>
        <time>2012-02-18T11:04:28Z</time>
      </trkpt>
      <trkpt lat="42.89038" lon="0.13004">
        <ele>2298</ele>
        <time>2012-02-18T11:04:31Z</time>
      </trkpt>
      <trkpt lat="42.89035" lon="0.13003">
        <ele>2298</ele>
        <time>2012-02-18T11:04:37Z</time>
      </trkpt>
      <trkpt lat="42.89034" lon="0.13003">
        <ele>2299</ele>
        <time>2012-02-18T11:04:40Z</time>
      </trkpt>
      <trkpt lat="42.89031" lon="0.13004">
        <ele>2300</ele>
        <time>2012-02-18T11:04:45Z</time>
      </trkpt>
      <trkpt lat="42.8903" lon="0.13002">
        <ele>2300</ele>
        <time>2012-02-18T11:04:50Z</time>
      </trkpt>
      <trkpt lat="42.89027" lon="0.13001">
        <ele>2301</ele>
        <time>2012-02-18T11:04:56Z</time>
      </trkpt>
      <trkpt lat="42.89026" lon="0.13001">
        <ele>2302</ele>
        <time>2012-02-18T11:04:59Z</time>
      </trkpt>
      <trkpt lat="42.89024" lon="0.13001">
        <ele>2302</ele>
        <time>2012-02-18T11:05:02Z</time>
      </trkpt>
      <trkpt lat="42.89021" lon="0.13003">
        <ele>2303</ele>
        <time>2012-02-18T11:05:08Z</time>
      </trkpt>
      <trkpt lat="42.8902" lon="0.13003">
        <ele>2304</ele>
        <time>2012-02-18T11:05:41Z</time>
      </trkpt>
      <trkpt lat="42.89018" lon="0.13004">
        <ele>2304</ele>
        <time>2012-02-18T11:05:44Z</time>
      </trkpt>
      <trkpt lat="42.89016" lon="0.13005">
        <ele>2305</ele>
        <time>2012-02-18T11:05:49Z</time>
      </trkpt>
      <trkpt lat="42.89013" lon="0.13007">
        <ele>2306</ele>
        <time>2012-02-18T11:05:54Z</time>
      </trkpt>
      <trkpt lat="42.8901" lon="0.1301">
        <ele>2307</ele>
        <time>2012-02-18T11:06:00Z</time>
      </trkpt>
      <trkpt lat="42.89008" lon="0.13011">
        <ele>2307</ele>
        <time>2012-02-18T11:06:05Z</time>
      </trkpt>
      <trkpt lat="42.89006" lon="0.13012">
        <ele>2307</ele>
        <time>2012-02-18T11:06:08Z</time>
      </trkpt>
      <trkpt lat="42.89003" lon="0.13013">
        <ele>2308</ele>
        <time>2012-02-18T11:06:13Z</time>
      </trkpt>
      <trkpt lat="42.89001" lon="0.13014">
        <ele>2308</ele>
        <time>2012-02-18T11:06:18Z</time>
      </trkpt>
      <trkpt lat="42.89001" lon="0.13012">
        <ele>2309</ele>
        <time>2012-02-18T11:06:31Z</time>
      </trkpt>
      <trkpt lat="42.89001" lon="0.1301">
        <ele>2309</ele>
        <time>2012-02-18T11:06:34Z</time>
      </trkpt>
      <trkpt lat="42.89003" lon="0.13007">
        <ele>2309</ele>
        <time>2012-02-18T11:06:40Z</time>
      </trkpt>
      <trkpt lat="42.89004" lon="0.13005">
        <ele>2309</ele>
        <time>2012-02-18T11:06:43Z</time>
      </trkpt>
      <trkpt lat="42.89005" lon="0.13004">
        <ele>2309</ele>
        <time>2012-02-18T11:06:46Z</time>
      </trkpt>
      <trkpt lat="42.89003" lon="0.13003">
        <ele>2310</ele>
        <time>2012-02-18T11:07:00Z</time>
      </trkpt>
      <trkpt lat="42.89" lon="0.13003">
        <ele>2310</ele>
        <time>2012-02-18T11:07:06Z</time>
      </trkpt>
      <trkpt lat="42.88999" lon="0.13003">
        <ele>2310</ele>
        <time>2012-02-18T11:07:09Z</time>
      </trkpt>
      <trkpt lat="42.88996" lon="0.13004">
        <ele>2311</ele>
        <time>2012-02-18T11:07:15Z</time>
      </trkpt>
      <trkpt lat="42.88995" lon="0.13005">
        <ele>2311</ele>
        <time>2012-02-18T11:07:18Z</time>
      </trkpt>
      <trkpt lat="42.88994" lon="0.13005">
        <ele>2311</ele>
        <time>2012-02-18T11:07:21Z</time>
      </trkpt>
      <trkpt lat="42.88992" lon="0.13006">
        <ele>2312</ele>
        <time>2012-02-18T11:07:24Z</time>
      </trkpt>
      <trkpt lat="42.8899" lon="0.13009">
        <ele>2314</ele>
        <time>2012-02-18T11:07:31Z</time>
      </trkpt>
      <trkpt lat="42.88988" lon="0.1301">
        <ele>2315</ele>
        <time>2012-02-18T11:07:45Z</time>
      </trkpt>
      <trkpt lat="42.88988" lon="0.13009">
        <ele>2318</ele>
        <time>2012-02-18T11:08:05Z</time>
      </trkpt>
      <trkpt lat="42.88988" lon="0.13005">
        <ele>2318</ele>
        <time>2012-02-18T11:08:11Z</time>
      </trkpt>
      <trkpt lat="42.88988" lon="0.13003">
        <ele>2318</ele>
        <time>2012-02-18T11:08:14Z</time>
      </trkpt>
      <trkpt lat="42.88988" lon="0.13001">
        <ele>2318</ele>
        <time>2012-02-18T11:08:17Z</time>
      </trkpt>
      <trkpt lat="42.88988" lon="0.12997">
        <ele>2320</ele>
        <time>2012-02-18T11:08:23Z</time>
      </trkpt>
      <trkpt lat="42.88989" lon="0.12995">
        <ele>2320</ele>
        <time>2012-02-18T11:08:26Z</time>
      </trkpt>
      <trkpt lat="42.8899" lon="0.12991">
        <ele>2321</ele>
        <time>2012-02-18T11:08:32Z</time>
      </trkpt>
      <trkpt lat="42.8899" lon="0.1299">
        <ele>2321</ele>
        <time>2012-02-18T11:08:35Z</time>
      </trkpt>
      <trkpt lat="42.88991" lon="0.12986">
        <ele>2322</ele>
        <time>2012-02-18T11:08:41Z</time>
      </trkpt>
      <trkpt lat="42.88991" lon="0.12984">
        <ele>2322</ele>
        <time>2012-02-18T11:08:44Z</time>
      </trkpt>
      <trkpt lat="42.88992" lon="0.12983">
        <ele>2323</ele>
        <time>2012-02-18T11:08:48Z</time>
      </trkpt>
      <trkpt lat="42.88993" lon="0.12981">
        <ele>2323</ele>
        <time>2012-02-18T11:08:51Z</time>
      </trkpt>
      <trkpt lat="42.88994" lon="0.1298">
        <ele>2324</ele>
        <time>2012-02-18T11:09:02Z</time>
      </trkpt>
      <trkpt lat="42.88993" lon="0.1298">
        <ele>2324</ele>
        <time>2012-02-18T11:09:08Z</time>
      </trkpt>
      <trkpt lat="42.88992" lon="0.1298">
        <ele>2324</ele>
        <time>2012-02-18T11:09:13Z</time>
      </trkpt>
      <trkpt lat="42.8899" lon="0.1298">
        <ele>2324</ele>
        <time>2012-02-18T11:09:16Z</time>
      </trkpt>
      <trkpt lat="42.88989" lon="0.1298">
        <ele>2324</ele>
        <time>2012-02-18T11:09:19Z</time>
      </trkpt>
      <trkpt lat="42.88986" lon="0.1298">
        <ele>2324</ele>
        <time>2012-02-18T11:09:25Z</time>
      </trkpt>
      <trkpt lat="42.88985" lon="0.12981">
        <ele>2324</ele>
        <time>2012-02-18T11:09:28Z</time>
      </trkpt>
      <trkpt lat="42.88984" lon="0.12982">
        <ele>2324</ele>
        <time>2012-02-18T11:09:31Z</time>
      </trkpt>
      <trkpt lat="42.88982" lon="0.12982">
        <ele>2324</ele>
        <time>2012-02-18T11:09:34Z</time>
      </trkpt>
      <trkpt lat="42.88981" lon="0.12983">
        <ele>2325</ele>
        <time>2012-02-18T11:09:38Z</time>
      </trkpt>
      <trkpt lat="42.88979" lon="0.12984">
        <ele>2325</ele>
        <time>2012-02-18T11:09:41Z</time>
      </trkpt>
      <trkpt lat="42.88978" lon="0.12985">
        <ele>2326</ele>
        <time>2012-02-18T11:09:45Z</time>
      </trkpt>
      <trkpt lat="42.88977" lon="0.12986">
        <ele>2326</ele>
        <time>2012-02-18T11:09:49Z</time>
      </trkpt>
      <trkpt lat="42.88974" lon="0.12987">
        <ele>2327</ele>
        <time>2012-02-18T11:10:02Z</time>
      </trkpt>
      <trkpt lat="42.88973" lon="0.12987">
        <ele>2328</ele>
        <time>2012-02-18T11:10:30Z</time>
      </trkpt>
      <trkpt lat="42.88972" lon="0.12988">
        <ele>2328</ele>
        <time>2012-02-18T11:10:33Z</time>
      </trkpt>
      <trkpt lat="42.88971" lon="0.12989">
        <ele>2328</ele>
        <time>2012-02-18T11:10:36Z</time>
      </trkpt>
      <trkpt lat="42.88969" lon="0.12991">
        <ele>2329</ele>
        <time>2012-02-18T11:10:40Z</time>
      </trkpt>
      <trkpt lat="42.88968" lon="0.12992">
        <ele>2329</ele>
        <time>2012-02-18T11:10:44Z</time>
      </trkpt>
      <trkpt lat="42.88967" lon="0.12994">
        <ele>2330</ele>
        <time>2012-02-18T11:10:48Z</time>
      </trkpt>
      <trkpt lat="42.88966" lon="0.12994">
        <ele>2331</ele>
        <time>2012-02-18T11:11:05Z</time>
      </trkpt>
      <trkpt lat="42.88966" lon="0.12992">
        <ele>2331</ele>
        <time>2012-02-18T11:11:08Z</time>
      </trkpt>
      <trkpt lat="42.88965" lon="0.12991">
        <ele>2331</ele>
        <time>2012-02-18T11:11:11Z</time>
      </trkpt>
      <trkpt lat="42.88965" lon="0.12987">
        <ele>2332</ele>
        <time>2012-02-18T11:11:17Z</time>
      </trkpt>
      <trkpt lat="42.88964" lon="0.12984">
        <ele>2333</ele>
        <time>2012-02-18T11:11:22Z</time>
      </trkpt>
      <trkpt lat="42.88963" lon="0.1298">
        <ele>2334</ele>
        <time>2012-02-18T11:11:27Z</time>
      </trkpt>
      <trkpt lat="42.88963" lon="0.12979">
        <ele>2335</ele>
        <time>2012-02-18T11:11:30Z</time>
      </trkpt>
      <trkpt lat="42.88963" lon="0.12977">
        <ele>2336</ele>
        <time>2012-02-18T11:11:33Z</time>
      </trkpt>
      <trkpt lat="42.88963" lon="0.12975">
        <ele>2336</ele>
        <time>2012-02-18T11:11:36Z</time>
      </trkpt>
      <trkpt lat="42.88961" lon="0.12975">
        <ele>2338</ele>
        <time>2012-02-18T11:12:04Z</time>
      </trkpt>
      <trkpt lat="42.8896" lon="0.12976">
        <ele>2338</ele>
        <time>2012-02-18T11:12:07Z</time>
      </trkpt>
      <trkpt lat="42.88959" lon="0.12976">
        <ele>2338</ele>
        <time>2012-02-18T11:12:10Z</time>
      </trkpt>
      <trkpt lat="42.88958" lon="0.12976">
        <ele>2338</ele>
        <time>2012-02-18T11:12:13Z</time>
      </trkpt>
      <trkpt lat="42.88957" lon="0.12977">
        <ele>2338</ele>
        <time>2012-02-18T11:12:16Z</time>
      </trkpt>
      <trkpt lat="42.88954" lon="0.12977">
        <ele>2338</ele>
        <time>2012-02-18T11:12:22Z</time>
      </trkpt>
      <trkpt lat="42.88953" lon="0.12978">
        <ele>2338</ele>
        <time>2012-02-18T11:12:25Z</time>
      </trkpt>
      <trkpt lat="42.8895" lon="0.12978">
        <ele>2340</ele>
        <time>2012-02-18T11:12:31Z</time>
      </trkpt>
      <trkpt lat="42.88948" lon="0.12978">
        <ele>2340</ele>
        <time>2012-02-18T11:12:34Z</time>
      </trkpt>
      <trkpt lat="42.88947" lon="0.12977">
        <ele>2341</ele>
        <time>2012-02-18T11:12:37Z</time>
      </trkpt>
      <trkpt lat="42.88947" lon="0.12976">
        <ele>2343</ele>
        <time>2012-02-18T11:13:01Z</time>
      </trkpt>
      <trkpt lat="42.88947" lon="0.12974">
        <ele>2343</ele>
        <time>2012-02-18T11:13:05Z</time>
      </trkpt>
      <trkpt lat="42.88947" lon="0.12971">
        <ele>2344</ele>
        <time>2012-02-18T11:13:09Z</time>
      </trkpt>
      <trkpt lat="42.88948" lon="0.12968">
        <ele>2344</ele>
        <time>2012-02-18T11:13:13Z</time>
      </trkpt>
      <trkpt lat="42.88949" lon="0.12967">
        <ele>2345</ele>
        <time>2012-02-18T11:13:16Z</time>
      </trkpt>
      <trkpt lat="42.88949" lon="0.12964">
        <ele>2346</ele>
        <time>2012-02-18T11:13:20Z</time>
      </trkpt>
      <trkpt lat="42.88948" lon="0.12962">
        <ele>2347</ele>
        <time>2012-02-18T11:13:23Z</time>
      </trkpt>
      <trkpt lat="42.88949" lon="0.12958">
        <ele>2348</ele>
        <time>2012-02-18T11:13:28Z</time>
      </trkpt>
      <trkpt lat="42.88951" lon="0.12955">
        <ele>2349</ele>
        <time>2012-02-18T11:13:36Z</time>
      </trkpt>
      <trkpt lat="42.88951" lon="0.12954">
        <ele>2350</ele>
        <time>2012-02-18T11:13:40Z</time>
      </trkpt>
      <trkpt lat="42.88952" lon="0.12951">
        <ele>2350</ele>
        <time>2012-02-18T11:13:44Z</time>
      </trkpt>
      <trkpt lat="42.88952" lon="0.12949">
        <ele>2350</ele>
        <time>2012-02-18T11:13:47Z</time>
      </trkpt>
      <trkpt lat="42.88953" lon="0.12947">
        <ele>2350</ele>
        <time>2012-02-18T11:13:51Z</time>
      </trkpt>
      <trkpt lat="42.88951" lon="0.12947">
        <ele>2350</ele>
        <time>2012-02-18T11:13:56Z</time>
      </trkpt>
      <trkpt lat="42.8895" lon="0.12947">
        <ele>2350</ele>
        <time>2012-02-18T11:14:00Z</time>
      </trkpt>
      <trkpt lat="42.88948" lon="0.12947">
        <ele>2351</ele>
        <time>2012-02-18T11:14:04Z</time>
      </trkpt>
      <trkpt lat="42.88946" lon="0.12948">
        <ele>2352</ele>
        <time>2012-02-18T11:14:10Z</time>
      </trkpt>
      <trkpt lat="42.88943" lon="0.12951">
        <ele>2353</ele>
        <time>2012-02-18T11:14:44Z</time>
      </trkpt>
      <trkpt lat="42.88942" lon="0.12954">
        <ele>2354</ele>
        <time>2012-02-18T11:14:51Z</time>
      </trkpt>
      <trkpt lat="42.8894" lon="0.12955">
        <ele>2354</ele>
        <time>2012-02-18T11:14:55Z</time>
      </trkpt>
      <trkpt lat="42.88939" lon="0.12956">
        <ele>2355</ele>
        <time>2012-02-18T11:14:58Z</time>
      </trkpt>
      <trkpt lat="42.88938" lon="0.12955">
        <ele>2356</ele>
        <time>2012-02-18T11:15:02Z</time>
      </trkpt>
      <trkpt lat="42.88937" lon="0.12953">
        <ele>2356</ele>
        <time>2012-02-18T11:15:05Z</time>
      </trkpt>
      <trkpt lat="42.88937" lon="0.12952">
        <ele>2357</ele>
        <time>2012-02-18T11:15:08Z</time>
      </trkpt>
      <trkpt lat="42.88936" lon="0.1295">
        <ele>2357</ele>
        <time>2012-02-18T11:15:11Z</time>
      </trkpt>
      <trkpt lat="42.88934" lon="0.12948">
        <ele>2358</ele>
        <time>2012-02-18T11:15:17Z</time>
      </trkpt>
      <trkpt lat="42.88932" lon="0.12949">
        <ele>2358</ele>
        <time>2012-02-18T11:15:20Z</time>
      </trkpt>
      <trkpt lat="42.88931" lon="0.1295">
        <ele>2359</ele>
        <time>2012-02-18T11:15:23Z</time>
      </trkpt>
      <trkpt lat="42.88928" lon="0.12952">
        <ele>2360</ele>
        <time>2012-02-18T11:15:28Z</time>
      </trkpt>
      <trkpt lat="42.88927" lon="0.12953">
        <ele>2361</ele>
        <time>2012-02-18T11:15:35Z</time>
      </trkpt>
      <trkpt lat="42.88926" lon="0.12954">
        <ele>2361</ele>
        <time>2012-02-18T11:15:56Z</time>
      </trkpt>
      <trkpt lat="42.88924" lon="0.12956">
        <ele>2361</ele>
        <time>2012-02-18T11:16:00Z</time>
      </trkpt>
      <trkpt lat="42.88923" lon="0.12957">
        <ele>2361</ele>
        <time>2012-02-18T11:16:03Z</time>
      </trkpt>
      <trkpt lat="42.88921" lon="0.12959">
        <ele>2362</ele>
        <time>2012-02-18T11:16:07Z</time>
      </trkpt>
      <trkpt lat="42.88921" lon="0.1296">
        <ele>2362</ele>
        <time>2012-02-18T11:16:10Z</time>
      </trkpt>
      <trkpt lat="42.88919" lon="0.12964">
        <ele>2364</ele>
        <time>2012-02-18T11:16:16Z</time>
      </trkpt>
      <trkpt lat="42.88918" lon="0.12965">
        <ele>2364</ele>
        <time>2012-02-18T11:16:20Z</time>
      </trkpt>
      <trkpt lat="42.88916" lon="0.12966">
        <ele>2365</ele>
        <time>2012-02-18T11:16:24Z</time>
      </trkpt>
      <trkpt lat="42.88915" lon="0.12967">
        <ele>2365</ele>
        <time>2012-02-18T11:16:28Z</time>
      </trkpt>
      <trkpt lat="42.88914" lon="0.12967">
        <ele>2366</ele>
        <time>2012-02-18T11:16:32Z</time>
      </trkpt>
      <trkpt lat="42.88911" lon="0.12968">
        <ele>2367</ele>
        <time>2012-02-18T11:16:38Z</time>
      </trkpt>
      <trkpt lat="42.8891" lon="0.12968">
        <ele>2368</ele>
        <time>2012-02-18T11:16:41Z</time>
      </trkpt>
      <trkpt lat="42.88908" lon="0.12968">
        <ele>2368</ele>
        <time>2012-02-18T11:17:12Z</time>
      </trkpt>
      <trkpt lat="42.88907" lon="0.12968">
        <ele>2368</ele>
        <time>2012-02-18T11:17:18Z</time>
      </trkpt>
      <trkpt lat="42.88905" lon="0.12968">
        <ele>2370</ele>
        <time>2012-02-18T11:17:24Z</time>
      </trkpt>
      <trkpt lat="42.88901" lon="0.12968">
        <ele>2371</ele>
        <time>2012-02-18T11:17:30Z</time>
      </trkpt>
      <trkpt lat="42.889" lon="0.12969">
        <ele>2371</ele>
        <time>2012-02-18T11:17:33Z</time>
      </trkpt>
      <trkpt lat="42.88899" lon="0.12969">
        <ele>2371</ele>
        <time>2012-02-18T11:17:36Z</time>
      </trkpt>
      <trkpt lat="42.88896" lon="0.12968">
        <ele>2371</ele>
        <time>2012-02-18T11:17:42Z</time>
      </trkpt>
      <trkpt lat="42.88894" lon="0.12968">
        <ele>2371</ele>
        <time>2012-02-18T11:17:47Z</time>
      </trkpt>
      <trkpt lat="42.88892" lon="0.12967">
        <ele>2371</ele>
        <time>2012-02-18T11:17:50Z</time>
      </trkpt>
      <trkpt lat="42.88891" lon="0.12965">
        <ele>2371</ele>
        <time>2012-02-18T11:17:54Z</time>
      </trkpt>
      <trkpt lat="42.8889" lon="0.12962">
        <ele>2372</ele>
        <time>2012-02-18T11:18:10Z</time>
      </trkpt>
      <trkpt lat="42.88889" lon="0.1296">
        <ele>2372</ele>
        <time>2012-02-18T11:18:33Z</time>
      </trkpt>
      <trkpt lat="42.88886" lon="0.12961">
        <ele>2374</ele>
        <time>2012-02-18T11:18:40Z</time>
      </trkpt>
      <trkpt lat="42.88885" lon="0.12962">
        <ele>2376</ele>
        <time>2012-02-18T11:18:43Z</time>
      </trkpt>
      <trkpt lat="42.88884" lon="0.12963">
        <ele>2379</ele>
        <time>2012-02-18T11:18:58Z</time>
      </trkpt>
      <trkpt lat="42.88883" lon="0.12965">
        <ele>2379</ele>
        <time>2012-02-18T11:19:01Z</time>
      </trkpt>
      <trkpt lat="42.88882" lon="0.12966">
        <ele>2379</ele>
        <time>2012-02-18T11:19:04Z</time>
      </trkpt>
      <trkpt lat="42.88881" lon="0.12968">
        <ele>2379</ele>
        <time>2012-02-18T11:19:07Z</time>
      </trkpt>
      <trkpt lat="42.8888" lon="0.12969">
        <ele>2380</ele>
        <time>2012-02-18T11:19:10Z</time>
      </trkpt>
      <trkpt lat="42.88878" lon="0.12973">
        <ele>2380</ele>
        <time>2012-02-18T11:19:16Z</time>
      </trkpt>
      <trkpt lat="42.88877" lon="0.12975">
        <ele>2381</ele>
        <time>2012-02-18T11:19:19Z</time>
      </trkpt>
      <trkpt lat="42.88875" lon="0.12978">
        <ele>2382</ele>
        <time>2012-02-18T11:19:24Z</time>
      </trkpt>
      <trkpt lat="42.88875" lon="0.12981">
        <ele>2383</ele>
        <time>2012-02-18T11:19:28Z</time>
      </trkpt>
      <trkpt lat="42.88876" lon="0.12984">
        <ele>2383</ele>
        <time>2012-02-18T11:19:32Z</time>
      </trkpt>
      <trkpt lat="42.88876" lon="0.12986">
        <ele>2384</ele>
        <time>2012-02-18T11:19:35Z</time>
      </trkpt>
      <trkpt lat="42.88875" lon="0.12988">
        <ele>2385</ele>
        <time>2012-02-18T11:20:00Z</time>
      </trkpt>
      <trkpt lat="42.88874" lon="0.12991">
        <ele>2385</ele>
        <time>2012-02-18T11:20:04Z</time>
      </trkpt>
      <trkpt lat="42.88874" lon="0.12993">
        <ele>2385</ele>
        <time>2012-02-18T11:20:08Z</time>
      </trkpt>
      <trkpt lat="42.88874" lon="0.12997">
        <ele>2385</ele>
        <time>2012-02-18T11:20:13Z</time>
      </trkpt>
      <trkpt lat="42.88876" lon="0.13">
        <ele>2385</ele>
        <time>2012-02-18T11:20:18Z</time>
      </trkpt>
      <trkpt lat="42.88877" lon="0.13002">
        <ele>2386</ele>
        <time>2012-02-18T11:20:21Z</time>
      </trkpt>
      <trkpt lat="42.88878" lon="0.13006">
        <ele>2387</ele>
        <time>2012-02-18T11:20:27Z</time>
      </trkpt>
      <trkpt lat="42.88878" lon="0.13008">
        <ele>2387</ele>
        <time>2012-02-18T11:20:30Z</time>
      </trkpt>
      <trkpt lat="42.88876" lon="0.13011">
        <ele>2387</ele>
        <time>2012-02-18T11:20:35Z</time>
      </trkpt>
      <trkpt lat="42.88875" lon="0.13011">
        <ele>2388</ele>
        <time>2012-02-18T11:20:58Z</time>
      </trkpt>
      <trkpt lat="42.88874" lon="0.13012">
        <ele>2388</ele>
        <time>2012-02-18T11:21:01Z</time>
      </trkpt>
      <trkpt lat="42.88873" lon="0.13013">
        <ele>2388</ele>
        <time>2012-02-18T11:21:04Z</time>
      </trkpt>
      <trkpt lat="42.8887" lon="0.13013">
        <ele>2388</ele>
        <time>2012-02-18T11:21:09Z</time>
      </trkpt>
      <trkpt lat="42.88868" lon="0.13014">
        <ele>2389</ele>
        <time>2012-02-18T11:21:13Z</time>
      </trkpt>
      <trkpt lat="42.88866" lon="0.13015">
        <ele>2390</ele>
        <time>2012-02-18T11:21:16Z</time>
      </trkpt>
      <trkpt lat="42.88863" lon="0.13016">
        <ele>2392</ele>
        <time>2012-02-18T11:21:21Z</time>
      </trkpt>
      <trkpt lat="42.88861" lon="0.13017">
        <ele>2394</ele>
        <time>2012-02-18T11:21:26Z</time>
      </trkpt>
      <trkpt lat="42.88859" lon="0.1302">
        <ele>2395</ele>
        <time>2012-02-18T11:21:31Z</time>
      </trkpt>
      <trkpt lat="42.8886" lon="0.13024">
        <ele>2396</ele>
        <time>2012-02-18T11:21:35Z</time>
      </trkpt>
      <trkpt lat="42.8886" lon="0.13025">
        <ele>2398</ele>
        <time>2012-02-18T11:22:01Z</time>
      </trkpt>
      <trkpt lat="42.88863" lon="0.13029">
        <ele>2398</ele>
        <time>2012-02-18T11:22:07Z</time>
      </trkpt>
      <trkpt lat="42.88865" lon="0.13033">
        <ele>2400</ele>
        <time>2012-02-18T11:22:13Z</time>
      </trkpt>
      <trkpt lat="42.88867" lon="0.13036">
        <ele>2400</ele>
        <time>2012-02-18T11:22:17Z</time>
      </trkpt>
      <trkpt lat="42.88868" lon="0.13039">
        <ele>2401</ele>
        <time>2012-02-18T11:22:21Z</time>
      </trkpt>
      <trkpt lat="42.88868" lon="0.13042">
        <ele>2401</ele>
        <time>2012-02-18T11:22:25Z</time>
      </trkpt>
      <trkpt lat="42.88867" lon="0.13045">
        <ele>2402</ele>
        <time>2012-02-18T11:22:29Z</time>
      </trkpt>
      <trkpt lat="42.88866" lon="0.13046">
        <ele>2402</ele>
        <time>2012-02-18T11:22:32Z</time>
      </trkpt>
      <trkpt lat="42.88866" lon="0.13048">
        <ele>2403</ele>
        <time>2012-02-18T11:22:52Z</time>
      </trkpt>
      <trkpt lat="42.88865" lon="0.13049">
        <ele>2403</ele>
        <time>2012-02-18T11:22:58Z</time>
      </trkpt>
      <trkpt lat="42.88862" lon="0.13051">
        <ele>2403</ele>
        <time>2012-02-18T11:23:03Z</time>
      </trkpt>
      <trkpt lat="42.88859" lon="0.13054">
        <ele>2404</ele>
        <time>2012-02-18T11:23:09Z</time>
      </trkpt>
      <trkpt lat="42.88858" lon="0.13057">
        <ele>2404</ele>
        <time>2012-02-18T11:23:13Z</time>
      </trkpt>
      <trkpt lat="42.88858" lon="0.1306">
        <ele>2406</ele>
        <time>2012-02-18T11:23:36Z</time>
      </trkpt>
      <trkpt lat="42.88857" lon="0.13064">
        <ele>2406</ele>
        <time>2012-02-18T11:23:40Z</time>
      </trkpt>
      <trkpt lat="42.88857" lon="0.13068">
        <ele>2406</ele>
        <time>2012-02-18T11:23:44Z</time>
      </trkpt>
      <trkpt lat="42.88855" lon="0.13073">
        <ele>2406</ele>
        <time>2012-02-18T11:23:48Z</time>
      </trkpt>
      <trkpt lat="42.88855" lon="0.13075">
        <ele>2406</ele>
        <time>2012-02-18T11:23:51Z</time>
      </trkpt>
      <trkpt lat="42.88856" lon="0.13076">
        <ele>2406</ele>
        <time>2012-02-18T11:23:54Z</time>
      </trkpt>
      <trkpt lat="42.88856" lon="0.13079">
        <ele>2406</ele>
        <time>2012-02-18T11:23:58Z</time>
      </trkpt>
      <trkpt lat="42.88854" lon="0.13081">
        <ele>2408</ele>
        <time>2012-02-18T11:25:00Z</time>
      </trkpt>
      <trkpt lat="42.88854" lon="0.1308">
        <ele>2408</ele>
        <time>2012-02-18T11:25:15Z</time>
      </trkpt>
      <trkpt lat="42.88852" lon="0.13079">
        <ele>2408</ele>
        <time>2012-02-18T11:25:22Z</time>
      </trkpt>
      <trkpt lat="42.88851" lon="0.13078">
        <ele>2408</ele>
        <time>2012-02-18T11:26:00Z</time>
      </trkpt>
      <trkpt lat="42.8885" lon="0.13079">
        <ele>2409</ele>
        <time>2012-02-18T11:26:28Z</time>
      </trkpt>
      <trkpt lat="42.8885" lon="0.13081">
        <ele>2410</ele>
        <time>2012-02-18T11:27:05Z</time>
      </trkpt>
      <trkpt lat="42.88851" lon="0.13081">
        <ele>2410</ele>
        <time>2012-02-18T11:27:26Z</time>
      </trkpt>
      <trkpt lat="42.88852" lon="0.1308">
        <ele>2410</ele>
        <time>2012-02-18T11:27:36Z</time>
      </trkpt>
      <trkpt lat="42.88853" lon="0.13078">
        <ele>2410</ele>
        <time>2012-02-18T11:27:40Z</time>
      </trkpt>
      <trkpt lat="42.88855" lon="0.13079">
        <ele>2410</ele>
        <time>2012-02-18T11:28:06Z</time>
      </trkpt>
      <trkpt lat="42.88856" lon="0.13079">
        <ele>2409</ele>
        <time>2012-02-18T11:28:19Z</time>
      </trkpt>
      <trkpt lat="42.88855" lon="0.13077">
        <ele>2408</ele>
        <time>2012-02-18T11:28:54Z</time>
      </trkpt>
      <trkpt lat="42.88856" lon="0.13079">
        <ele>2406</ele>
        <time>2012-02-18T11:30:12Z</time>
      </trkpt>
      <trkpt lat="42.88855" lon="0.1308">
        <ele>2406</ele>
        <time>2012-02-18T11:30:16Z</time>
      </trkpt>
      <trkpt lat="42.88854" lon="0.13082">
        <ele>2406</ele>
        <time>2012-02-18T11:30:24Z</time>
      </trkpt>
      <trkpt lat="42.88855" lon="0.1308">
        <ele>2406</ele>
        <time>2012-02-18T11:30:33Z</time>
      </trkpt>
      <trkpt lat="42.88855" lon="0.13079">
        <ele>2406</ele>
        <time>2012-02-18T11:30:47Z</time>
      </trkpt>
    </trkseg>
  </trk>
</gpx>